Observation data for Hobbs on 01/18/2019      Previous  Date  Next       Current Mesonet Observations  Soil Data  Daily Summary Page  Observations in Plain Language
KHO1 180600Z 21011KT 08/M01 A3007 RMK A01 T00821006  RH  054%=      5-min Rain = 0
KHO1 180601Z 20011KT 08/M01 A3007 RMK A01 T00821007  RH  054%=      5-min Rain = 0
KHO1 180602Z 20012KT 08/M01 A3007 RMK A01 T00811007  RH  054%=      5-min Rain = 0
KHO1 180603Z 21012KT 08/M01 A3007 RMK A01 T00821006  RH  054%=      5-min Rain = 0
KHO1 180604Z 21012KT 08/M01 A3007 RMK A01 T00821007  RH  054%=      5-min Rain = 0
KHO1 180605Z 21011KT 08/M01 A3007 RMK A01 T00811007  RH  054%=      5-min Rain = 0
KHO1 180606Z 21011KT 08/M01 A3007 RMK A01 T00811007  RH  054%=      5-min Rain = 0
KHO1 180607Z 21011KT 08/M01 A3007 RMK A01 T00811007  RH  054%=      5-min Rain = 0
KHO1 180608Z 21011KT 08/M01 A3007 RMK A01 T00811006  RH  054%=      5-min Rain = 0
KHO1 180609Z 21011KT 08/M01 A3007 RMK A01 T00811006  RH  054%=      5-min Rain = 0
KHO1 180610Z 21011KT 08/M01 A3007 RMK A01 T00821006  RH  054%=      5-min Rain = 0
KHO1 180611Z 21011KT 08/M01 A3007 RMK A01 T00821006  RH  054%=      5-min Rain = 0
KHO1 180612Z 21011KT 08/M01 A3006 RMK A01 T00821006  RH  054%=      5-min Rain = 0
KHO1 180613Z 21011KT 08/M01 A3007 RMK A01 T00821006  RH  054%=      5-min Rain = 0
KHO1 180614Z 21010KT 08/M01 A3006 RMK A01 T00821006  RH  054%=      5-min Rain = 0
KHO1 180615Z 21009KT 08/M01 A3006 RMK A01 T00821006  RH  054%=      5-min Rain = 0
KHO1 180616Z 21011KT 08/M01 A3007 RMK A01 T00821006  RH  054%=      5-min Rain = 0
KHO1 180617Z 21008KT 08/M01 A3007 RMK A01 T00811006  RH  054%=      5-min Rain = 0
KHO1 180618Z 21010KT 08/M01 A3006 RMK A01 T00801006  RH  054%=      5-min Rain = 0
KHO1 180619Z 21009KT 08/M01 A3006 RMK A01 T00801006  RH  055%=      5-min Rain = 0
KHO1 180620Z 21011KT 08/M01 A3006 RMK A01 T00791006  RH  055%=      5-min Rain = 0
KHO1 180621Z 20010KT 08/M01 A3006 RMK A01 T00801006  RH  054%=      5-min Rain = 0
KHO1 180622Z 21010KT 08/M01 A3006 RMK A01 T00801006  RH  055%=      5-min Rain = 0
KHO1 180623Z 20010KT 08/M01 A3006 RMK A01 T00791006  RH  055%=      5-min Rain = 0
KHO1 180624Z 21010KT 08/M01 A3006 RMK A01 T00791006  RH  055%=      5-min Rain = 0
KHO1 180625Z 21010KT 08/M01 A3006 RMK A01 T00781006  RH  055%=      5-min Rain = 0
KHO1 180626Z 21010KT 08/M01 A3006 RMK A01 T00791006  RH  055%=      5-min Rain = 0
KHO1 180627Z 21010KT 08/M01 A3006 RMK A01 T00791006  RH  055%=      5-min Rain = 0
KHO1 180628Z 21011KT 08/M01 A3006 RMK A01 T00791006  RH  055%=      5-min Rain = 0
KHO1 180629Z 21010KT 08/M01 A3006 RMK A01 T00781006  RH  055%=      5-min Rain = 0
KHO1 180630Z 21010KT 08/M01 A3006 RMK A01 T00781007  RH  055%=      5-min Rain = 0
KHO1 180631Z 21010KT 08/M01 A3006 RMK A01 T00771007  RH  055%=      5-min Rain = 0
KHO1 180632Z 21011KT 08/M01 A3006 RMK A01 T00771007  RH  055%=      5-min Rain = 0
KHO1 180633Z 20010KT 08/M01 A3006 RMK A01 T00771007  RH  056%=      5-min Rain = 0
KHO1 180634Z 21009KT 08/M01 A3006 RMK A01 T00761007  RH  056%=      5-min Rain = 0
KHO1 180635Z 20009KT 08/M01 A3006 RMK A01 T00761007  RH  056%=      5-min Rain = 0
KHO1 180636Z 21009KT 08/M01 A3006 RMK A01 T00761007  RH  056%=      5-min Rain = 0
KHO1 180637Z 20009KT 08/M01 A3006 RMK A01 T00761007  RH  056%=      5-min Rain = 0
KHO1 180638Z 20008KT 08/M01 A3005 RMK A01 T00751007  RH  056%=      5-min Rain = 0
KHO1 180639Z 21010KT 07/M01 A3006 RMK A01 T00741007  RH  056%=      5-min Rain = 0
KHO1 180640Z 20009KT 08/M01 A3006 RMK A01 T00751006  RH  056%=      5-min Rain = 0
KHO1 180641Z 21008KT 08/M01 A3006 RMK A01 T00751007  RH  056%=      5-min Rain = 0
KHO1 180642Z 21008KT 07/M01 A3006 RMK A01 T00741007  RH  056%=      5-min Rain = 0
KHO1 180643Z 21009KT 07/M01 A3006 RMK A01 T00741007  RH  056%=      5-min Rain = 0
KHO1 180644Z 21008KT 08/M01 A3006 RMK A01 T00751007  RH  056%=      5-min Rain = 0
KHO1 180645Z 21009KT 08/M01 A3006 RMK A01 T00751007  RH  056%=      5-min Rain = 0
KHO1 180646Z 21009KT 08/M01 A3006 RMK A01 T00751007  RH  056%=      5-min Rain = 0
KHO1 180647Z 21010KT 08/M01 A3006 RMK A01 T00751007  RH  056%=      5-min Rain = 0
KHO1 180648Z 21009KT 08/M01 A3006 RMK A01 T00751007  RH  056%=      5-min Rain = 0
KHO1 180649Z 22008KT 07/M01 A3005 RMK A01 T00741007  RH  056%=      5-min Rain = 0
KHO1 180650Z 21008KT 07/M01 A3005 RMK A01 T00731007  RH  057%=      5-min Rain = 0
KHO1 180651Z 21010KT 07/M01 A3005 RMK A01 T00731007  RH  057%=      5-min Rain = 0
KHO1 180652Z 21009KT 07/M01 A3005 RMK A01 T00741007  RH  057%=      5-min Rain = 0
KHO1 180653Z 22009KT 07/M01 A3005 RMK A01 T00741007  RH  056%=      5-min Rain = 0
KHO1 180654Z 22008KT 07/M01 A3005 RMK A01 T00741007  RH  057%=      5-min Rain = 0
KHO1 180655Z 22009KT 07/M01 A3005 RMK A01 T00741006  RH  057%=      5-min Rain = 0
KHO1 180656Z 22009KT 08/M01 A3005 RMK A01 T00751006  RH  056%=      5-min Rain = 0
KHO1 180657Z 22009KT 08/M01 A3005 RMK A01 T00761006  RH  056%=      5-min Rain = 0
KHO1 180658Z 22010KT 08/M01 A3005 RMK A01 T00761006  RH  056%=      5-min Rain = 0
KHO1 180659Z 22010KT 08/M01 A3005 RMK A01 T00761006  RH  056%=      5-min Rain = 0
KHO1 180700Z 22009KT 08/M01 A3005 RMK A01 T00771006  RH  056%=      5-min Rain = 0
KHO1 180701Z 22010KT 08/M01 A3005 RMK A01 T00781006  RH  055%=      5-min Rain = 0
KHO1 180702Z 22010KT 08/M01 A3005 RMK A01 T00801006  RH  055%=      5-min Rain = 0
KHO1 180703Z 22011KT 08/M01 A3005 RMK A01 T00811005  RH  055%=      5-min Rain = 0
KHO1 180704Z 22010KT 08/M01 A3005 RMK A01 T00821005  RH  054%=      5-min Rain = 0
KHO1 180705Z 21010KT 08/M01 A3005 RMK A01 T00821006  RH  054%=      5-min Rain = 0
KHO1 180706Z 22010KT 08/M01 A3005 RMK A01 T00821006  RH  054%=      5-min Rain = 0
KHO1 180707Z 22010KT 08/M01 A3004 RMK A01 T00821006  RH  054%=      5-min Rain = 0
KHO1 180708Z 22011KT 08/M01 A3005 RMK A01 T00831006  RH  054%=      5-min Rain = 0
KHO1 180709Z 21010KT 08/M01 A3004 RMK A01 T00831006  RH  053%=      5-min Rain = 0
KHO1 180710Z 22011KT 08/M01 A3004 RMK A01 T00831006  RH  053%=      5-min Rain = 0
KHO1 180711Z 22011KT 08/M01 A3004 RMK A01 T00831006  RH  053%=      5-min Rain = 0
KHO1 180712Z 22012KT 08/M01 A3004 RMK A01 T00841006  RH  053%=      5-min Rain = 0
KHO1 180713Z 22012KT 08/M01 A3004 RMK A01 T00841007  RH  053%=      5-min Rain = 0
KHO1 180714Z 21011KT 08/M01 A3004 RMK A01 T00841007  RH  053%=      5-min Rain = 0
KHO1 180715Z 22011KT 08/M01 A3004 RMK A01 T00841007  RH  053%=      5-min Rain = 0
KHO1 180716Z 21012KT 08/M01 A3004 RMK A01 T00841007  RH  053%=      5-min Rain = 0
KHO1 180717Z 21014KT 09/M01 A3004 RMK A01 T00851007  RH  053%=      5-min Rain = 0
KHO1 180718Z 21013KT 09/M01 A3004 RMK A01 T00861007  RH  052%=      5-min Rain = 0
KHO1 180719Z 21012KT 09/M01 A3004 RMK A01 T00861007  RH  052%=      5-min Rain = 0
KHO1 180720Z 21013KT 09/M01 A3003 RMK A01 T00851007  RH  052%=      5-min Rain = 0
KHO1 180721Z 21012KT 09/M01 A3003 RMK A01 T00851007  RH  052%=      5-min Rain = 0
KHO1 180722Z 21012KT 09/M01 A3003 RMK A01 T00861006  RH  052%=      5-min Rain = 0
KHO1 180723Z 21012KT 09/M01 A3003 RMK A01 T00861006  RH  052%=      5-min Rain = 0
KHO1 180724Z 21012KT 09/M01 A3003 RMK A01 T00861006  RH  052%=      5-min Rain = 0
KHO1 180725Z 21012KT 09/M01 A3003 RMK A01 T00871006  RH  052%=      5-min Rain = 0
KHO1 180726Z 21012KT 09/M01 A3003 RMK A01 T00871006  RH  052%=      5-min Rain = 0
KHO1 180727Z 22012KT 09/M01 A3003 RMK A01 T00871006  RH  052%=      5-min Rain = 0
KHO1 180728Z 22010KT 09/M01 A3003 RMK A01 T00861007  RH  052%=      5-min Rain = 0
KHO1 180729Z 22011KT 09/M01 A3003 RMK A01 T00861007  RH  052%=      5-min Rain = 0
KHO1 180730Z 22010KT 09/M01 A3003 RMK A01 T00861007  RH  052%=      5-min Rain = 0
KHO1 180731Z 22011KT 09/M01 A3003 RMK A01 T00851007  RH  052%=      5-min Rain = 0
KHO1 180732Z 22011KT 09/M01 A3003 RMK A01 T00851007  RH  052%=      5-min Rain = 0
KHO1 180733Z 22011KT 09/M01 A3003 RMK A01 T00851007  RH  052%=      5-min Rain = 0
KHO1 180734Z 22010KT 09/M01 A3003 RMK A01 T00851007  RH  052%=      5-min Rain = 0
KHO1 180735Z 21011KT 08/M01 A3003 RMK A01 T00841007  RH  053%=      5-min Rain = 0
KHO1 180736Z 22011KT 08/M01 A3003 RMK A01 T00841007  RH  053%=      5-min Rain = 0
KHO1 180737Z 22010KT 08/M01 A3003 RMK A01 T00841007  RH  053%=      5-min Rain = 0
KHO1 180738Z 22011KT 08/M01 A3003 RMK A01 T00841007  RH  053%=      5-min Rain = 0
KHO1 180739Z 22011KT 08/M01 A3003 RMK A01 T00841008  RH  052%=      5-min Rain = 0
KHO1 180740Z 22012KT 08/M01 A3003 RMK A01 T00841008  RH  052%=      5-min Rain = 0
KHO1 180741Z 22011KT 08/M01 A3003 RMK A01 T00841008  RH  052%=      5-min Rain = 0
KHO1 180742Z 22010KT 08/M01 A3002 RMK A01 T00831009  RH  052%=      5-min Rain = 0
KHO1 180743Z 22011KT 08/M01 A3002 RMK A01 T00831009  RH  052%=      5-min Rain = 0
KHO1 180744Z 22009KT 08/M01 A3002 RMK A01 T00821009  RH  053%=      5-min Rain = 0
KHO1 180745Z 22010KT 08/M01 A3002 RMK A01 T00811009  RH  053%=      5-min Rain = 0
KHO1 180746Z 22009KT 08/M01 A3002 RMK A01 T00801010  RH  053%=      5-min Rain = 0
KHO1 180747Z 22010KT 08/M01 A3002 RMK A01 T00801010  RH  053%=      5-min Rain = 0
KHO1 180748Z 22010KT 08/M01 A3002 RMK A01 T00811010  RH  053%=      5-min Rain = 0
KHO1 180749Z 22010KT 08/M01 A3002 RMK A01 T00801010  RH  053%=      5-min Rain = 0
KHO1 180750Z 22011KT 08/M01 A3002 RMK A01 T00811011  RH  053%=      5-min Rain = 0
KHO1 180751Z 22010KT 08/M01 A3002 RMK A01 T00811011  RH  052%=      5-min Rain = 0
KHO1 180752Z 22011KT 08/M01 A3002 RMK A01 T00811011  RH  052%=      5-min Rain = 0
KHO1 180753Z 22011KT 08/M01 A3002 RMK A01 T00811011  RH  052%=      5-min Rain = 0
KHO1 180754Z 22010KT 08/M01 A3002 RMK A01 T00811012  RH  052%=      5-min Rain = 0
KHO1 180755Z 22011KT 08/M01 A3002 RMK A01 T00811012  RH  052%=      5-min Rain = 0
KHO1 180756Z 22011KT 08/M01 A3002 RMK A01 T00811012  RH  052%=      5-min Rain = 0
KHO1 180757Z 22011KT 08/M01 A3002 RMK A01 T00811012  RH  052%=      5-min Rain = 0
KHO1 180758Z 22011KT 08/M01 A3002 RMK A01 T00811013  RH  052%=      5-min Rain = 0
KHO1 180759Z 22011KT 08/M01 A3002 RMK A01 T00811013  RH  052%=      5-min Rain = 0
KHO1 180800Z 22011KT 08/M01 A3002 RMK A01 T00811013  RH  052%=      5-min Rain = 0
KHO1 180801Z 22010KT 08/M01 A3002 RMK A01 T00811013  RH  052%=      5-min Rain = 0
KHO1 180802Z 22011KT 08/M01 A3002 RMK A01 T00801013  RH  052%=      5-min Rain = 0
KHO1 180803Z 22010KT 08/M01 A3002 RMK A01 T00801013  RH  052%=      5-min Rain = 0
KHO1 180804Z 22011KT 08/M01 A3002 RMK A01 T00811013  RH  051%=      5-min Rain = 0
KHO1 180805Z 22010KT 08/M01 A3002 RMK A01 T00811014  RH  051%=      5-min Rain = 0
KHO1 180806Z 22010KT 08/M01 A3002 RMK A01 T00801014  RH  052%=      5-min Rain = 0
KHO1 180807Z 22011KT 08/M01 A3002 RMK A01 T00801014  RH  052%=      5-min Rain = 0
KHO1 180808Z 21011KT 08/M01 A3002 RMK A01 T00801014  RH  052%=      5-min Rain = 0
KHO1 180809Z 22011KT 08/M01 A3002 RMK A01 T00791014  RH  052%=      5-min Rain = 0
KHO1 180810Z 22010KT 08/M01 A3002 RMK A01 T00791014  RH  052%=      5-min Rain = 0
KHO1 180811Z 22010KT 08/M01 A3002 RMK A01 T00791014  RH  052%=      5-min Rain = 0
KHO1 180812Z 21010KT 08/M01 A3002 RMK A01 T00781014  RH  052%=      5-min Rain = 0
KHO1 180813Z 22009KT 08/M01 A3002 RMK A01 T00771014  RH  052%=      5-min Rain = 0
KHO1 180814Z 22010KT 08/M01 A3002 RMK A01 T00771014  RH  052%=      5-min Rain = 0
KHO1 180815Z 22010KT 08/M01 A3002 RMK A01 T00771014  RH  052%=      5-min Rain = 0
KHO1 180816Z 22009KT 08/M01 A3002 RMK A01 T00771014  RH  052%=      5-min Rain = 0
KHO1 180817Z 22010KT 08/M01 A3002 RMK A01 T00781014  RH  052%=      5-min Rain = 0
KHO1 180818Z 22010KT 08/M01 A3002 RMK A01 T00791014  RH  052%=      5-min Rain = 0
KHO1 180819Z 22009KT 08/M01 A3002 RMK A01 T00791014  RH  052%=      5-min Rain = 0
KHO1 180820Z 22010KT 08/M01 A3002 RMK A01 T00791014  RH  052%=      5-min Rain = 0
KHO1 180821Z 22009KT 08/M01 A3002 RMK A01 T00781014  RH  052%=      5-min Rain = 0
KHO1 180822Z 22009KT 08/M01 A3002 RMK A01 T00781014  RH  052%=      5-min Rain = 0
KHO1 180823Z 22008KT 08/M02 A3002 RMK A01 T00771015  RH  052%=      5-min Rain = 0
KHO1 180824Z 21009KT 08/M02 A3002 RMK A01 T00761015  RH  053%=      5-min Rain = 0
KHO1 180825Z 21009KT 08/M01 A3002 RMK A01 T00761014  RH  053%=      5-min Rain = 0
KHO1 180826Z 21009KT 08/M01 A3002 RMK A01 T00771014  RH  053%=      5-min Rain = 0
KHO1 180827Z 21010KT 08/M01 A3002 RMK A01 T00771014  RH  052%=      5-min Rain = 0
KHO1 180828Z 21010KT 08/M01 A3002 RMK A01 T00771014  RH  053%=      5-min Rain = 0
KHO1 180829Z 21009KT 08/M01 A3002 RMK A01 T00771014  RH  052%=      5-min Rain = 0
KHO1 180830Z 21009KT 08/M01 A3002 RMK A01 T00771014  RH  052%=      5-min Rain = 0
KHO1 180831Z 21009KT 08/M01 A3002 RMK A01 T00771014  RH  053%=      5-min Rain = 0
KHO1 180832Z 22009KT 08/M02 A3002 RMK A01 T00761015  RH  053%=      5-min Rain = 0
KHO1 180833Z 21008KT 08/M01 A3002 RMK A01 T00761014  RH  053%=      5-min Rain = 0
KHO1 180834Z 21008KT 08/M01 A3001 RMK A01 T00761014  RH  053%=      5-min Rain = 0
KHO1 180835Z 21008KT 08/M01 A3001 RMK A01 T00761014  RH  053%=      5-min Rain = 0
KHO1 180836Z 21008KT 08/M01 A3001 RMK A01 T00751014  RH  053%=      5-min Rain = 0
KHO1 180837Z 22007KT 08/M02 A3001 RMK A01 T00751015  RH  053%=      5-min Rain = 0
KHO1 180838Z 21008KT 07/M02 A3001 RMK A01 T00741015  RH  053%=      5-min Rain = 0
KHO1 180839Z 21007KT 07/M01 A3001 RMK A01 T00741014  RH  053%=      5-min Rain = 0
KHO1 180840Z 21007KT 07/M01 A3001 RMK A01 T00741014  RH  054%=      5-min Rain = 0
KHO1 180841Z 22007KT 07/M01 A3001 RMK A01 T00731014  RH  054%=      5-min Rain = 0
KHO1 180842Z 22007KT 07/M01 A3001 RMK A01 T00731014  RH  054%=      5-min Rain = 0
KHO1 180843Z 22007KT 07/M01 A3001 RMK A01 T00731014  RH  054%=      5-min Rain = 0
KHO1 180844Z 22007KT 07/M01 A3001 RMK A01 T00721014  RH  054%=      5-min Rain = 0
KHO1 180845Z 22007KT 07/M01 A3001 RMK A01 T00721014  RH  054%=      5-min Rain = 0
KHO1 180846Z 22007KT 07/M01 A3001 RMK A01 T00721014  RH  054%=      5-min Rain = 0
KHO1 180847Z 22007KT 07/M01 A3001 RMK A01 T00711014  RH  054%=      5-min Rain = 0
KHO1 180848Z 22007KT 07/M01 A3001 RMK A01 T00711014  RH  055%=      5-min Rain = 0
KHO1 180849Z 22008KT 07/M01 A3001 RMK A01 T00711014  RH  055%=      5-min Rain = 0
KHO1 180850Z 22007KT 07/M01 A3001 RMK A01 T00711014  RH  055%=      5-min Rain = 0
KHO1 180851Z 22007KT 07/M01 A3001 RMK A01 T00701014  RH  055%=      5-min Rain = 0
KHO1 180852Z 22007KT 07/M01 A3001 RMK A01 T00711014  RH  055%=      5-min Rain = 0
KHO1 180853Z 22007KT 07/M01 A3001 RMK A01 T00721014  RH  054%=      5-min Rain = 0
KHO1 180854Z 22007KT 07/M01 A3001 RMK A01 T00721014  RH  054%=      5-min Rain = 0
KHO1 180855Z 22007KT 07/M01 A3001 RMK A01 T00731014  RH  054%=      5-min Rain = 0
KHO1 180856Z 22007KT 07/M01 A3001 RMK A01 T00731014  RH  054%=      5-min Rain = 0
KHO1 180857Z 22007KT 07/M01 A3001 RMK A01 T00741014  RH  053%=      5-min Rain = 0
KHO1 180858Z 22007KT 08/M01 A3001 RMK A01 T00751014  RH  053%=      5-min Rain = 0
KHO1 180859Z 22007KT 08/M02 A3001 RMK A01 T00761015  RH  053%=      5-min Rain = 0
KHO1 180900Z 22006KT 08/M02 A3001 RMK A01 T00761015  RH  053%=      5-min Rain = 0
KHO1 180901Z 22006KT 08/M02 A3001 RMK A01 T00761015  RH  053%=      5-min Rain = 0
KHO1 180902Z 22006KT 08/M02 A3001 RMK A01 T00761015  RH  053%=      5-min Rain = 0
KHO1 180903Z 22007KT 08/M02 A3001 RMK A01 T00751015  RH  053%=      5-min Rain = 0
KHO1 180904Z 22006KT 08/M02 A3001 RMK A01 T00751015  RH  053%=      5-min Rain = 0
KHO1 180905Z 22007KT 08/M02 A3001 RMK A01 T00751015  RH  053%=      5-min Rain = 0
KHO1 180906Z 22007KT 07/M02 A3001 RMK A01 T00741015  RH  053%=      5-min Rain = 0
KHO1 180907Z 22006KT 07/M02 A3001 RMK A01 T00741015  RH  053%=      5-min Rain = 0
KHO1 180908Z 22006KT 07/M02 A3001 RMK A01 T00741015  RH  053%=      5-min Rain = 0
KHO1 180909Z 21006KT 07/M02 A3001 RMK A01 T00721016  RH  054%=      5-min Rain = 0
KHO1 180910Z 21006KT 07/M02 A3001 RMK A01 T00721016  RH  054%=      5-min Rain = 0
KHO1 180911Z 22007KT 07/M02 A30 RMK A01 T00711016  RH  054%=      5-min Rain = 0
KHO1 180912Z 22006KT 07/M02 A30 RMK A01 T00701015  RH  054%=      5-min Rain = 0
KHO1 180913Z 22006KT 07/M02 A30 RMK A01 T00711015  RH  054%=      5-min Rain = 0
KHO1 180914Z 21006KT 07/M02 A30 RMK A01 T00701015  RH  055%=      5-min Rain = 0
KHO1 180915Z 22006KT 07/M02 A30 RMK A01 T00701015  RH  055%=      5-min Rain = 0
KHO1 180916Z 22006KT 07/M02 A30 RMK A01 T00711015  RH  054%=      5-min Rain = 0
KHO1 180917Z 22007KT 07/M02 A30 RMK A01 T00701015  RH  055%=      5-min Rain = 0
KHO1 180918Z 22006KT 07/M02 A30 RMK A01 T00691015  RH  055%=      5-min Rain = 0
KHO1 180919Z 22008KT 07/M02 A30 RMK A01 T00681015  RH  055%=      5-min Rain = 0
KHO1 180920Z 21008KT 07/M02 A30 RMK A01 T00681015  RH  055%=      5-min Rain = 0
KHO1 180921Z 21008KT 07/M02 A30 RMK A01 T00691015  RH  055%=      5-min Rain = 0
KHO1 180922Z 21008KT 07/M02 A30 RMK A01 T00691015  RH  055%=      5-min Rain = 0
KHO1 180923Z 21008KT 07/M01 A30 RMK A01 T00701014  RH  055%=      5-min Rain = 0
KHO1 180924Z 21008KT 07/M01 A30 RMK A01 T00701014  RH  055%=      5-min Rain = 0
KHO1 180925Z 21008KT 07/M01 A30 RMK A01 T00711014  RH  055%=      5-min Rain = 0
KHO1 180926Z 21008KT 07/M01 A30 RMK A01 T00721014  RH  054%=      5-min Rain = 0
KHO1 180927Z 21009KT 07/M01 A30 RMK A01 T00721014  RH  054%=      5-min Rain = 0
KHO1 180928Z 21008KT 07/M01 A30 RMK A01 T00731014  RH  054%=      5-min Rain = 0
KHO1 180929Z 22008KT 07/M01 A30 RMK A01 T00741014  RH  054%=      5-min Rain = 0
KHO1 180930Z 22008KT 08/M01 A30 RMK A01 T00751014  RH  053%=      5-min Rain = 0
KHO1 180931Z 22008KT 08/M01 A30 RMK A01 T00761014  RH  053%=      5-min Rain = 0
KHO1 180932Z 22008KT 08/M01 A30 RMK A01 T00771013  RH  053%=      5-min Rain = 0
KHO1 180933Z 22008KT 08/M01 A30 RMK A01 T00781013  RH  053%=      5-min Rain = 0
KHO1 180934Z 22008KT 08/M01 A30 RMK A01 T00781014  RH  052%=      5-min Rain = 0
KHO1 180935Z 22008KT 08/M01 A30 RMK A01 T00781014  RH  052%=      5-min Rain = 0
KHO1 180936Z 22008KT 08/M01 A30 RMK A01 T00791013  RH  052%=      5-min Rain = 0
KHO1 180937Z 22008KT 08/M01 A30 RMK A01 T00801013  RH  052%=      5-min Rain = 0
KHO1 180938Z 22008KT 08/M01 A30 RMK A01 T00801013  RH  052%=      5-min Rain = 0
KHO1 180939Z 22008KT 08/M01 A30 RMK A01 T00801013  RH  052%=      5-min Rain = 0
KHO1 180940Z 22008KT 08/M01 A30 RMK A01 T00801013  RH  052%=      5-min Rain = 0
KHO1 180941Z 22007KT 08/M01 A2999 RMK A01 T00801013  RH  052%=      5-min Rain = 0
KHO1 180942Z 21009KT 08/M01 A2999 RMK A01 T00791013  RH  052%=      5-min Rain = 0
KHO1 180943Z 22009KT 08/M01 A2999 RMK A01 T00801013  RH  052%=      5-min Rain = 0
KHO1 180944Z 21009KT 08/M01 A2999 RMK A01 T00811013  RH  052%=      5-min Rain = 0
KHO1 180945Z 21009KT 08/M01 A2999 RMK A01 T00811013  RH  052%=      5-min Rain = 0
KHO1 180946Z 21009KT 08/M01 A2999 RMK A01 T00811013  RH  052%=      5-min Rain = 0
KHO1 180947Z 22009KT 08/M01 A2999 RMK A01 T00811013  RH  051%=      5-min Rain = 0
KHO1 180948Z 22008KT 08/M01 A2999 RMK A01 T00811013  RH  051%=      5-min Rain = 0
KHO1 180949Z 22009KT 08/M01 A2999 RMK A01 T00811013  RH  052%=      5-min Rain = 0
KHO1 180950Z 21010KT 08/M01 A2999 RMK A01 T00811013  RH  052%=      5-min Rain = 0
KHO1 180951Z 21009KT 08/M01 A2999 RMK A01 T00821013  RH  051%=      5-min Rain = 0
KHO1 180952Z 22008KT 08/M01 A2999 RMK A01 T00811013  RH  051%=      5-min Rain = 0
KHO1 180953Z 22008KT 08/M01 A2999 RMK A01 T00811013  RH  052%=      5-min Rain = 0
KHO1 180954Z 22008KT 08/M01 A2999 RMK A01 T00811013  RH  051%=      5-min Rain = 0
KHO1 180955Z 22008KT 08/M01 A2999 RMK A01 T00821013  RH  051%=      5-min Rain = 0
KHO1 180956Z 22008KT 08/M01 A2999 RMK A01 T00821013  RH  051%=      5-min Rain = 0
KHO1 180957Z 22008KT 08/M01 A2999 RMK A01 T00821013  RH  051%=      5-min Rain = 0
KHO1 180958Z 22008KT 08/M01 A2999 RMK A01 T00821013  RH  051%=      5-min Rain = 0
KHO1 180959Z 22009KT 08/M01 A2999 RMK A01 T00821013  RH  051%=      5-min Rain = 0
KHO1 181000Z 22008KT 08/M01 A2999 RMK A01 T00821013  RH  051%=      5-min Rain = 0
KHO1 181001Z 22008KT 08/M01 A2999 RMK A01 T00821013  RH  051%=      5-min Rain = 0
KHO1 181002Z 22007KT 08/M01 A2999 RMK A01 T00811013  RH  051%=      5-min Rain = 0
KHO1 181003Z 21007KT 08/M01 A2999 RMK A01 T00791014  RH  052%=      5-min Rain = 0
KHO1 181004Z 21007KT 08/M01 A2999 RMK A01 T00781014  RH  052%=      5-min Rain = 0
KHO1 181005Z 21007KT 08/M01 A2999 RMK A01 T00761014  RH  053%=      5-min Rain = 0
KHO1 181006Z 21009KT 08/M01 A2998 RMK A01 T00751014  RH  053%=      5-min Rain = 0
KHO1 181007Z 21008KT 07/M01 A2998 RMK A01 T00741013  RH  054%=      5-min Rain = 0
KHO1 181008Z 21008KT 07/M01 A2998 RMK A01 T00741013  RH  054%=      5-min Rain = 0
KHO1 181009Z 20008KT 07/M01 A2998 RMK A01 T00731014  RH  054%=      5-min Rain = 0
KHO1 181010Z 21009KT 07/M01 A2998 RMK A01 T00731013  RH  054%=      5-min Rain = 0
KHO1 181011Z 21008KT 07/M01 A2998 RMK A01 T00731013  RH  054%=      5-min Rain = 0
KHO1 181012Z 21008KT 07/M01 A2998 RMK A01 T00721013  RH  055%=      5-min Rain = 0
KHO1 181013Z 20009KT 07/M01 A2998 RMK A01 T00731013  RH  055%=      5-min Rain = 0
KHO1 181014Z 20009KT 07/M01 A2998 RMK A01 T00741013  RH  054%=      5-min Rain = 0
KHO1 181015Z 21010KT 07/M01 A2998 RMK A01 T00741013  RH  054%=      5-min Rain = 0
KHO1 181016Z 20010KT 07/M01 A2998 RMK A01 T00741013  RH  054%=      5-min Rain = 0
KHO1 181017Z 20011KT 08/M01 A2997 RMK A01 T00751013  RH  054%=      5-min Rain = 0
KHO1 181018Z 20011KT 08/M01 A2997 RMK A01 T00751013  RH  054%=      5-min Rain = 0
KHO1 181019Z 20009KT 08/M01 A2997 RMK A01 T00751013  RH  054%=      5-min Rain = 0
KHO1 181020Z 20010KT 08/M01 A2997 RMK A01 T00751013  RH  054%=      5-min Rain = 0
KHO1 181021Z 21010KT 08/M01 A2997 RMK A01 T00751013  RH  054%=      5-min Rain = 0
KHO1 181022Z 20010KT 08/M01 A2997 RMK A01 T00761013  RH  054%=      5-min Rain = 0
KHO1 181023Z 20011KT 08/M01 A2997 RMK A01 T00751013  RH  054%=      5-min Rain = 0
KHO1 181024Z 20011KT 08/M01 A2997 RMK A01 T00751013  RH  054%=      5-min Rain = 0
KHO1 181025Z 20011KT 08/M01 A2997 RMK A01 T00751013  RH  054%=      5-min Rain = 0
KHO1 181026Z 20011KT 08/M01 A2997 RMK A01 T00751013  RH  053%=      5-min Rain = 0
KHO1 181027Z 20012KT 08/M01 A2997 RMK A01 T00761013  RH  053%=      5-min Rain = 0
KHO1 181028Z 21011KT 08/M01 A2997 RMK A01 T00771013  RH  053%=      5-min Rain = 0
KHO1 181029Z 21011KT 08/M01 A2997 RMK A01 T00761013  RH  053%=      5-min Rain = 0
KHO1 181030Z 21009KT 08/M01 A2997 RMK A01 T00761013  RH  053%=      5-min Rain = 0
KHO1 181031Z 21010KT 08/M01 A2997 RMK A01 T00761013  RH  053%=      5-min Rain = 0
KHO1 181032Z 21010KT 08/M01 A2997 RMK A01 T00761013  RH  053%=      5-min Rain = 0
KHO1 181033Z 21010KT 08/M01 A2997 RMK A01 T00771013  RH  053%=      5-min Rain = 0
KHO1 181034Z 21009KT 08/M01 A2997 RMK A01 T00761013  RH  053%=      5-min Rain = 0
KHO1 181035Z 21010KT 08/M01 A2997 RMK A01 T00761013  RH  053%=      5-min Rain = 0
KHO1 181036Z 21009KT 08/M01 A2997 RMK A01 T00761013  RH  053%=      5-min Rain = 0
KHO1 181037Z 21010KT 08/M01 A2997 RMK A01 T00761012  RH  054%=      5-min Rain = 0
KHO1 181038Z 21009KT 08/M01 A2997 RMK A01 T00751012  RH  054%=      5-min Rain = 0
KHO1 181039Z 20010KT 08/M01 A2997 RMK A01 T00751012  RH  054%=      5-min Rain = 0
KHO1 181040Z 21010KT 08/M01 A2997 RMK A01 T00751012  RH  054%=      5-min Rain = 0
KHO1 181041Z 20010KT 08/M01 A2997 RMK A01 T00751012  RH  054%=      5-min Rain = 0
KHO1 181042Z 21009KT 08/M01 A2996 RMK A01 T00761012  RH  054%=      5-min Rain = 0
KHO1 181043Z 20009KT 08/M01 A2996 RMK A01 T00751012  RH  054%=      5-min Rain = 0
KHO1 181044Z 20009KT 08/M01 A2996 RMK A01 T00751012  RH  054%=      5-min Rain = 0
KHO1 181045Z 20009KT 07/M01 A2996 RMK A01 T00741012  RH  054%=      5-min Rain = 0
KHO1 181046Z 20010KT 08/M01 A2996 RMK A01 T00751012  RH  054%=      5-min Rain = 0
KHO1 181047Z 20010KT 08/M01 A2996 RMK A01 T00751011  RH  054%=      5-min Rain = 0
KHO1 181048Z 20009KT 08/M01 A2996 RMK A01 T00751012  RH  054%=      5-min Rain = 0
KHO1 181049Z 20010KT 07/M01 A2996 RMK A01 T00741012  RH  054%=      5-min Rain = 0
KHO1 181050Z 20009KT 07/M01 A2996 RMK A01 T00741011  RH  055%=      5-min Rain = 0
KHO1 181051Z 20010KT 07/M01 A2996 RMK A01 T00731011  RH  055%=      5-min Rain = 0
KHO1 181052Z 20010KT 07/M01 A2996 RMK A01 T00731011  RH  056%=      5-min Rain = 0
KHO1 181053Z 20011KT 07/M01 A2996 RMK A01 T00731010  RH  056%=      5-min Rain = 0
KHO1 181054Z 20010KT 07/M01 A2995 RMK A01 T00741009  RH  056%=      5-min Rain = 0
KHO1 181055Z 20010KT 08/M01 A2995 RMK A01 T00751009  RH  055%=      5-min Rain = 0
KHO1 181056Z 20011KT 08/M01 A2995 RMK A01 T00771009  RH  054%=      5-min Rain = 0
KHO1 181057Z 20010KT 08/M01 A2995 RMK A01 T00781009  RH  054%=      5-min Rain = 0
KHO1 181058Z 20011KT 08/M01 A2995 RMK A01 T00791009  RH  054%=      5-min Rain = 0
KHO1 181059Z 21010KT 08/M01 A2995 RMK A01 T00791009  RH  054%=      5-min Rain = 0
KHO1 181100Z 21009KT 08/M01 A2995 RMK A01 T00791009  RH  054%=      5-min Rain = 0
KHO1 181101Z 21009KT 08/M01 A2995 RMK A01 T00801009  RH  053%=      5-min Rain = 0
KHO1 181102Z 21009KT 08/M01 A2995 RMK A01 T00801009  RH  053%=      5-min Rain = 0
KHO1 181103Z 20010KT 08/M01 A2995 RMK A01 T00801009  RH  053%=      5-min Rain = 0
KHO1 181104Z 20009KT 08/M01 A2995 RMK A01 T00801009  RH  053%=      5-min Rain = 0
KHO1 181105Z 20010KT 08/M01 A2995 RMK A01 T00801009  RH  053%=      5-min Rain = 0
KHO1 181106Z 21010KT 08/M01 A2995 RMK A01 T00801009  RH  053%=      5-min Rain = 0
KHO1 181107Z 20010KT 08/M01 A2995 RMK A01 T00811009  RH  053%=      5-min Rain = 0
KHO1 181108Z 20009KT 08/M01 A2995 RMK A01 T00811009  RH  053%=      5-min Rain = 0
KHO1 181109Z 21009KT 08/M01 A2995 RMK A01 T00801010  RH  053%=      5-min Rain = 0
KHO1 181110Z 20009KT 08/M01 A2995 RMK A01 T00811010  RH  053%=      5-min Rain = 0
KHO1 181111Z 20008KT 08/M01 A2995 RMK A01 T00801009  RH  053%=      5-min Rain = 0
KHO1 181112Z 20009KT 08/M01 A2995 RMK A01 T00801009  RH  053%=      5-min Rain = 0
KHO1 181113Z 20008KT 08/M01 A2995 RMK A01 T00801009  RH  053%=      5-min Rain = 0
KHO1 181114Z 20009KT 08/M01 A2995 RMK A01 T00801008  RH  054%=      5-min Rain = 0
KHO1 181115Z 20008KT 08/M01 A2995 RMK A01 T00811008  RH  054%=      5-min Rain = 0
KHO1 181116Z 21008KT 08/M01 A2995 RMK A01 T00801008  RH  054%=      5-min Rain = 0
KHO1 181117Z 21008KT 08/M01 A2995 RMK A01 T00801008  RH  054%=      5-min Rain = 0
KHO1 181118Z 20008KT 08/M01 A2995 RMK A01 T00801007  RH  054%=      5-min Rain = 0
KHO1 181119Z 20008KT 08/M01 A2995 RMK A01 T00801007  RH  054%=      5-min Rain = 0
KHO1 181120Z 20008KT 08/M01 A2994 RMK A01 T00801007  RH  054%=      5-min Rain = 0
KHO1 181121Z 20009KT 08/M01 A2994 RMK A01 T00801007  RH  054%=      5-min Rain = 0
KHO1 181122Z 20008KT 08/M01 A2994 RMK A01 T00801007  RH  054%=      5-min Rain = 0
KHO1 181123Z 20009KT 08/M01 A2994 RMK A01 T00801007  RH  054%=      5-min Rain = 0
KHO1 181124Z 20008KT 08/M01 A2994 RMK A01 T00801007  RH  054%=      5-min Rain = 0
KHO1 181125Z 20008KT 08/M01 A2994 RMK A01 T00801007  RH  054%=      5-min Rain = 0
KHO1 181126Z 20008KT 08/M01 A2994 RMK A01 T00791008  RH  054%=      5-min Rain = 0
KHO1 181127Z 20008KT 08/M01 A2994 RMK A01 T00791008  RH  054%=      5-min Rain = 0
KHO1 181128Z 20008KT 08/M01 A2994 RMK A01 T00801008  RH  054%=      5-min Rain = 0
KHO1 181129Z 20009KT 08/M01 A2994 RMK A01 T00791008  RH  054%=      5-min Rain = 0
KHO1 181130Z 20008KT 08/M01 A2994 RMK A01 T00801007  RH  054%=      5-min Rain = 0
KHO1 181131Z 20008KT 08/M01 A2994 RMK A01 T00801007  RH  054%=      5-min Rain = 0
KHO1 181132Z 20008KT 08/M01 A2994 RMK A01 T00801007  RH  054%=      5-min Rain = 0
KHO1 181133Z 20007KT 08/M01 A2994 RMK A01 T00791007  RH  054%=      5-min Rain = 0
KHO1 181134Z 20007KT 08/M01 A2993 RMK A01 T00791007  RH  055%=      5-min Rain = 0
KHO1 181135Z 20008KT 08/M01 A2993 RMK A01 T00791007  RH  055%=      5-min Rain = 0
KHO1 181136Z 20007KT 08/M01 A2993 RMK A01 T00781007  RH  055%=      5-min Rain = 0
KHO1 181137Z 20007KT 08/M01 A2994 RMK A01 T00781007  RH  055%=      5-min Rain = 0
KHO1 181138Z 20007KT 08/M01 A2993 RMK A01 T00781007  RH  055%=      5-min Rain = 0
KHO1 181139Z 20007KT 08/M01 A2993 RMK A01 T00771007  RH  055%=      5-min Rain = 0
KHO1 181140Z 20006KT 08/M01 A2993 RMK A01 T00771007  RH  055%=      5-min Rain = 0
KHO1 181141Z 20006KT 08/M01 A2993 RMK A01 T00761007  RH  055%=      5-min Rain = 0
KHO1 181142Z 20007KT 08/M01 A2993 RMK A01 T00761007  RH  055%=      5-min Rain = 0
KHO1 181143Z 20006KT 08/M01 A2993 RMK A01 T00761007  RH  055%=      5-min Rain = 0
KHO1 181144Z 20006KT 08/M01 A2993 RMK A01 T00761007  RH  056%=      5-min Rain = 0
KHO1 181145Z 20006KT 08/M01 A2993 RMK A01 T00761007  RH  056%=      5-min Rain = 0
KHO1 181146Z 20006KT 08/M01 A2993 RMK A01 T00751007  RH  056%=      5-min Rain = 0
KHO1 181147Z 20006KT 08/M01 A2993 RMK A01 T00751007  RH  056%=      5-min Rain = 0
KHO1 181148Z 20006KT 08/M01 A2993 RMK A01 T00751007  RH  056%=      5-min Rain = 0
KHO1 181149Z 20007KT 08/M01 A2993 RMK A01 T00751007  RH  056%=      5-min Rain = 0
KHO1 181150Z 20006KT 08/M01 A2993 RMK A01 T00751006  RH  056%=      5-min Rain = 0
KHO1 181151Z 20007KT 07/M01 A2993 RMK A01 T00741007  RH  057%=      5-min Rain = 0
KHO1 181152Z 20007KT 07/M01 A2993 RMK A01 T00741006  RH  057%=      5-min Rain = 0
KHO1 181153Z 19007KT 07/M01 A2993 RMK A01 T00731007  RH  057%=      5-min Rain = 0
KHO1 181154Z 19007KT 07/M01 A2993 RMK A01 T00731007  RH  057%=      5-min Rain = 0
KHO1 181155Z 20007KT 07/M01 A2993 RMK A01 T00731007  RH  057%=      5-min Rain = 0
KHO1 181156Z 20007KT 07/M01 A2993 RMK A01 T00721007  RH  057%=      5-min Rain = 0
KHO1 181157Z 19007KT 07/M01 A2993 RMK A01 T00711007  RH  058%=      5-min Rain = 0
KHO1 181158Z 20007KT 07/M01 A2992 RMK A01 T00711007  RH  058%=      5-min Rain = 0
KHO1 181159Z 20008KT 07/M01 A2992 RMK A01 T00711006  RH  058%=      5-min Rain = 0
KHO1 181200Z 20007KT 07/M01 A2992 RMK A01 T00701006  RH  058%=      5-min Rain = 0
KHO1 181201Z 20007KT 07/M01 A2993 RMK A01 T00701006  RH  058%=      5-min Rain = 0
KHO1 181202Z 20007KT 07/M01 A2992 RMK A01 T00701006  RH  058%=      5-min Rain = 0
KHO1 181203Z 20007KT 07/M01 A2992 RMK A01 T00701006  RH  059%=      5-min Rain = 0
KHO1 181204Z 20007KT 07/M01 A2992 RMK A01 T00701006  RH  059%=      5-min Rain = 0
KHO1 181205Z 21007KT 07/M01 A2992 RMK A01 T00701006  RH  059%=      5-min Rain = 0
KHO1 181206Z 21007KT 07/M01 A2992 RMK A01 T00701006  RH  058%=      5-min Rain = 0
KHO1 181207Z 21006KT 07/M01 A2992 RMK A01 T00711005  RH  058%=      5-min Rain = 0
KHO1 181208Z 21007KT 07/M01 A2993 RMK A01 T00711006  RH  058%=      5-min Rain = 0
KHO1 181209Z 21007KT 07/M01 A2993 RMK A01 T00711005  RH  058%=      5-min Rain = 0
KHO1 181210Z 21007KT 07/M01 A2992 RMK A01 T00711006  RH  058%=      5-min Rain = 0
KHO1 181211Z 21007KT 07/M01 A2992 RMK A01 T00711006  RH  058%=      5-min Rain = 0
KHO1 181212Z 21006KT 07/M01 A2992 RMK A01 T00711006  RH  058%=      5-min Rain = 0
KHO1 181213Z 21007KT 07/M01 A2992 RMK A01 T00711006  RH  058%=      5-min Rain = 0
KHO1 181214Z 21007KT 07/M01 A2992 RMK A01 T00711005  RH  058%=      5-min Rain = 0
KHO1 181215Z 21007KT 07/M01 A2992 RMK A01 T00711005  RH  058%=      5-min Rain = 0
KHO1 181216Z 21007KT 07/M01 A2992 RMK A01 T00711005  RH  058%=      5-min Rain = 0
KHO1 181217Z 21008KT 07/M01 A2992 RMK A01 T00711005  RH  058%=      5-min Rain = 0
KHO1 181218Z 21008KT 07/M01 A2992 RMK A01 T00711005  RH  058%=      5-min Rain = 0
KHO1 181219Z 21008KT 07/M01 A2992 RMK A01 T00711005  RH  058%=      5-min Rain = 0
KHO1 181220Z 21008KT 07/M01 A2992 RMK A01 T00711005  RH  059%=      5-min Rain = 0
KHO1 181221Z 21008KT 07/M01 A2992 RMK A01 T00711005  RH  059%=      5-min Rain = 0
KHO1 181222Z 21008KT 07/M01 A2992 RMK A01 T00711005  RH  059%=      5-min Rain = 0
KHO1 181223Z 21008KT 07/M00 A2992 RMK A01 T00711004  RH  059%=      5-min Rain = 0
KHO1 181224Z 21009KT 07/M00 A2992 RMK A01 T00721004  RH  059%=      5-min Rain = 0
KHO1 181225Z 22009KT 07/M00 A2992 RMK A01 T00721004  RH  058%=      5-min Rain = 0
KHO1 181226Z 22008KT 07/M00 A2992 RMK A01 T00721004  RH  058%=      5-min Rain = 0
KHO1 181227Z 22007KT 07/M00 A2992 RMK A01 T00721004  RH  058%=      5-min Rain = 0
KHO1 181228Z 22007KT 07/M00 A2992 RMK A01 T00721003  RH  058%=      5-min Rain = 0
KHO1 181229Z 23007KT 07/M00 A2992 RMK A01 T00731003  RH  058%=      5-min Rain = 0
KHO1 181230Z 23008KT 07/M00 A2992 RMK A01 T00741003  RH  058%=      5-min Rain = 0
KHO1 181231Z 23007KT 07/M00 A2992 RMK A01 T00741003  RH  058%=      5-min Rain = 0
KHO1 181232Z 24006KT 07/M00 A2992 RMK A01 T00741003  RH  058%=      5-min Rain = 0
KHO1 181233Z 24007KT 07/M00 A2992 RMK A01 T00731003  RH  059%=      5-min Rain = 0
KHO1 181234Z 24007KT 07/M00 A2992 RMK A01 T00721002  RH  059%=      5-min Rain = 0
KHO1 181235Z 24007KT 07/M00 A2992 RMK A01 T00721002  RH  059%=      5-min Rain = 0
KHO1 181236Z 24007KT 07/M00 A2992 RMK A01 T00711002  RH  060%=      5-min Rain = 0
KHO1 181237Z 24007KT 07/M00 A2992 RMK A01 T00701001  RH  060%=      5-min Rain = 0
KHO1 181238Z 24007KT 07/M00 A2992 RMK A01 T00701001  RH  060%=      5-min Rain = 0
KHO1 181239Z 24007KT 07/M00 A2992 RMK A01 T00701001  RH  061%=      5-min Rain = 0
KHO1 181240Z 24007KT 07/M00 A2992 RMK A01 T00691001  RH  061%=      5-min Rain = 0
KHO1 181241Z 23007KT 07/00 A2992 RMK A01 T006900-0  RH  061%=      5-min Rain = 0
KHO1 181242Z 23008KT 07/00 A2992 RMK A01 T00690000  RH  061%=      5-min Rain = 0
KHO1 181243Z 23008KT 07/00 A2992 RMK A01 T00690001  RH  061%=      5-min Rain = 0
KHO1 181244Z 23008KT 07/00 A2992 RMK A01 T00700001  RH  061%=      5-min Rain = 0
KHO1 181245Z 23008KT 07/00 A2992 RMK A01 T00700001  RH  061%=      5-min Rain = 0
KHO1 181246Z 23008KT 07/00 A2992 RMK A01 T00710001  RH  061%=      5-min Rain = 0
KHO1 181247Z 23007KT 07/00 A2992 RMK A01 T00710002  RH  061%=      5-min Rain = 0
KHO1 181248Z 23007KT 07/00 A2992 RMK A01 T00710002  RH  061%=      5-min Rain = 0
KHO1 181249Z 23007KT 07/00 A2992 RMK A01 T00710002  RH  061%=      5-min Rain = 0
KHO1 181250Z 23007KT 07/00 A2992 RMK A01 T00710002  RH  061%=      5-min Rain = 0
KHO1 181251Z 23007KT 07/00 A2992 RMK A01 T00710002  RH  061%=      5-min Rain = 0
KHO1 181252Z 23008KT 07/00 A2992 RMK A01 T00710002  RH  062%=      5-min Rain = 0
KHO1 181253Z 23007KT 07/00 A2992 RMK A01 T00720003  RH  062%=      5-min Rain = 0
KHO1 181254Z 23007KT 07/00 A2992 RMK A01 T00730004  RH  061%=      5-min Rain = 0
KHO1 181255Z 23007KT 07/00 A2991 RMK A01 T00740004  RH  061%=      5-min Rain = 0
KHO1 181256Z 22007KT 08/00 A2991 RMK A01 T00750004  RH  061%=      5-min Rain = 0
KHO1 181257Z 22006KT 08/00 A2991 RMK A01 T00760004  RH  061%=      5-min Rain = 0
KHO1 181258Z 22006KT 08/00 A2991 RMK A01 T00760004  RH  060%=      5-min Rain = 0
KHO1 181259Z 22005KT 08/00 A2991 RMK A01 T00770004  RH  060%=      5-min Rain = 0
KHO1 181300Z 22005KT 08/00 A2991 RMK A01 T00770004  RH  060%=      5-min Rain = 0
KHO1 181301Z 22005KT 08/00 A2991 RMK A01 T00770004  RH  060%=      5-min Rain = 0
KHO1 181302Z 21006KT 08/00 A2991 RMK A01 T00770004  RH  060%=      5-min Rain = 0
KHO1 181303Z 21007KT 08/01 A2991 RMK A01 T00780005  RH  060%=      5-min Rain = 0
KHO1 181304Z 21007KT 08/01 A2991 RMK A01 T00780005  RH  060%=      5-min Rain = 0
KHO1 181305Z 21007KT 08/01 A2991 RMK A01 T00790005  RH  059%=      5-min Rain = 0
KHO1 181306Z 21008KT 08/01 A2991 RMK A01 T00800005  RH  059%=      5-min Rain = 0
KHO1 181307Z 22008KT 08/01 A2991 RMK A01 T00810005  RH  059%=      5-min Rain = 0
KHO1 181308Z 21007KT 08/01 A2991 RMK A01 T00820005  RH  059%=      5-min Rain = 0
KHO1 181309Z 21008KT 08/01 A2991 RMK A01 T00820005  RH  058%=      5-min Rain = 0
KHO1 181310Z 22009KT 08/01 A2991 RMK A01 T00830006  RH  058%=      5-min Rain = 0
KHO1 181311Z 22008KT 09/01 A2991 RMK A01 T00850006  RH  058%=      5-min Rain = 0
KHO1 181312Z 22010KT 09/01 A2991 RMK A01 T00850006  RH  057%=      5-min Rain = 0
KHO1 181313Z 23010KT 09/01 A2991 RMK A01 T00870007  RH  057%=      5-min Rain = 0
KHO1 181314Z 23011KT 09/01 A2991 RMK A01 T00890007  RH  056%=      5-min Rain = 0
KHO1 181315Z 23012KT 09/01 A2991 RMK A01 T00900006  RH  056%=      5-min Rain = 0
KHO1 181316Z 23011KT 09/01 A2991 RMK A01 T00910006  RH  055%=      5-min Rain = 0
KHO1 181317Z 23012KT 09/01 A2991 RMK A01 T00920006  RH  055%=      5-min Rain = 0
KHO1 181318Z 23012KT 09/01 A2991 RMK A01 T00920006  RH  055%=      5-min Rain = 0
KHO1 181319Z 22013KT 09/01 A2991 RMK A01 T00940006  RH  054%=      5-min Rain = 0
KHO1 181320Z 23013KT 10/01 A2991 RMK A01 T00950006  RH  054%=      5-min Rain = 0
KHO1 181321Z 22012KT 10/01 A2991 RMK A01 T00960006  RH  054%=      5-min Rain = 0
KHO1 181322Z 22012KT 10/01 A2991 RMK A01 T00960006  RH  053%=      5-min Rain = 0
KHO1 181323Z 23014KT 10/01 A2991 RMK A01 T00970006  RH  053%=      5-min Rain = 0
KHO1 181324Z 22013KT 10/01 A2991 RMK A01 T00980006  RH  053%=      5-min Rain = 0
KHO1 181325Z 23015KT 10/01 A2991 RMK A01 T00980006  RH  053%=      5-min Rain = 0
KHO1 181326Z 22014KT 10/01 A2991 RMK A01 T00980005  RH  052%=      5-min Rain = 0
KHO1 181327Z 22015KT 10/01 A2991 RMK A01 T00990005  RH  052%=      5-min Rain = 0
KHO1 181328Z 22014KT 10/01 A2991 RMK A01 T01000005  RH  051%=      5-min Rain = 0
KHO1 181329Z 22014KT 10/00 A2991 RMK A01 T01020004  RH  051%=      5-min Rain = 0
KHO1 181330Z 22014KT 10/00 A2991 RMK A01 T01020004  RH  051%=      5-min Rain = 0
KHO1 181331Z 22016KT 10/00 A2991 RMK A01 T01030003  RH  050%=      5-min Rain = 0
KHO1 181332Z 22015KT 11/00 A2991 RMK A01 T01050002  RH  049%=      5-min Rain = 0
KHO1 181333Z 23015KT 11/00 A2991 RMK A01 T01060002  RH  049%=      5-min Rain = 0
KHO1 181334Z 23015KT 11/00 A299 RMK A01 T01060002  RH  048%=      5-min Rain = 0
KHO1 181335Z 23017KT 11/00 A299 RMK A01 T01080001  RH  048%=      5-min Rain = 0
KHO1 181336Z 23017KT 11/00 A299 RMK A01 T01100000  RH  047%=      5-min Rain = 0
KHO1 181337Z 23018G23KT 11/00 A299 RMK A01 T011200-0  RH  046%=      5-min Rain = 0
KHO1 181338Z 23017KT 11/M00 A299 RMK A01 T01131001  RH  045%=      5-min Rain = 0
KHO1 181339Z 23016KT 11/M00 A299 RMK A01 T01131001  RH  045%=      5-min Rain = 0
KHO1 181340Z 23018KT 11/M00 A299 RMK A01 T01141002  RH  045%=      5-min Rain = 0
KHO1 181341Z 24018KT 12/M00 A299 RMK A01 T01151002  RH  044%=      5-min Rain = 0
KHO1 181342Z 24017KT 12/M00 A299 RMK A01 T01161002  RH  044%=      5-min Rain = 0
KHO1 181343Z 24018KT 12/M00 A299 RMK A01 T01161003  RH  044%=      5-min Rain = 0
KHO1 181344Z 24016KT 12/M00 A299 RMK A01 T01161002  RH  044%=      5-min Rain = 0
KHO1 181345Z 24018G24KT 12/M00 A299 RMK A01 T01151003  RH  044%=      5-min Rain = 0
KHO1 181346Z 24018KT 12/M00 A299 RMK A01 T01161003  RH  044%=      5-min Rain = 0
KHO1 181347Z 23017KT 12/M00 A299 RMK A01 T01161003  RH  044%=      5-min Rain = 0
KHO1 181348Z 24015KT 11/M00 A299 RMK A01 T01141003  RH  044%=      5-min Rain = 0
KHO1 181349Z 24016KT 11/M00 A299 RMK A01 T01131002  RH  045%=      5-min Rain = 0
KHO1 181350Z 24017KT 11/M00 A299 RMK A01 T01121002  RH  045%=      5-min Rain = 0
KHO1 181351Z 24015KT 11/M00 A299 RMK A01 T01121002  RH  045%=      5-min Rain = 0
KHO1 181352Z 24016KT 11/M00 A299 RMK A01 T01111002  RH  046%=      5-min Rain = 0
KHO1 181353Z 24014KT 11/M00 A299 RMK A01 T01101002  RH  046%=      5-min Rain = 0
KHO1 181354Z 24015KT 11/M00 A299 RMK A01 T01091001  RH  047%=      5-min Rain = 0
KHO1 181355Z 24015KT 11/M00 A299 RMK A01 T01081001  RH  047%=      5-min Rain = 0
KHO1 181356Z 23014KT 11/M00 A299 RMK A01 T01071001  RH  047%=      5-min Rain = 0
KHO1 181357Z 23015KT 11/M00 A299 RMK A01 T01061001  RH  048%=      5-min Rain = 0
KHO1 181358Z 23014KT 11/00 A2991 RMK A01 T010500-0  RH  048%=      5-min Rain = 0
KHO1 181359Z 23014KT 10/00 A299 RMK A01 T010400-0  RH  048%=      5-min Rain = 0
KHO1 181400Z 24013KT 10/00 A2991 RMK A01 T01040000  RH  048%=      5-min Rain = 0
KHO1 181401Z 24013KT 10/00 A2991 RMK A01 T01030000  RH  049%=      5-min Rain = 0
KHO1 181402Z 23013KT 10/00 A2991 RMK A01 T01020000  RH  049%=      5-min Rain = 0
KHO1 181403Z 24014KT 10/00 A2991 RMK A01 T01020001  RH  049%=      5-min Rain = 0
KHO1 181404Z 24013KT 10/00 A2991 RMK A01 T01010001  RH  050%=      5-min Rain = 0
KHO1 181405Z 24014KT 10/00 A2991 RMK A01 T01000001  RH  050%=      5-min Rain = 0
KHO1 181406Z 24013KT 10/00 A2991 RMK A01 T01000001  RH  050%=      5-min Rain = 0
KHO1 181407Z 24014KT 10/00 A2992 RMK A01 T00990002  RH  051%=      5-min Rain = 0
KHO1 181408Z 24014KT 10/00 A2992 RMK A01 T00990002  RH  051%=      5-min Rain = 0
KHO1 181409Z 24014KT 10/00 A2992 RMK A01 T00980002  RH  051%=      5-min Rain = 0
KHO1 181410Z 24013KT 10/00 A2992 RMK A01 T00970002  RH  052%=      5-min Rain = 0
KHO1 181411Z 24012KT 10/00 A2992 RMK A01 T00960002  RH  052%=      5-min Rain = 0
KHO1 181412Z 24012KT 10/00 A2991 RMK A01 T00950002  RH  052%=      5-min Rain = 0
KHO1 181413Z 24012KT 10/00 A2992 RMK A01 T00950002  RH  053%=      5-min Rain = 0
KHO1 181414Z 24012KT 09/00 A2992 RMK A01 T00940002  RH  053%=      5-min Rain = 0
KHO1 181415Z 24012KT 09/00 A2992 RMK A01 T00940003  RH  053%=      5-min Rain = 0
KHO1 181416Z 24011KT 09/00 A2992 RMK A01 T00930003  RH  053%=      5-min Rain = 0
KHO1 181417Z 24013KT 09/00 A2991 RMK A01 T00930003  RH  053%=      5-min Rain = 0
KHO1 181418Z 24012KT 09/00 A2991 RMK A01 T00930003  RH  053%=      5-min Rain = 0
KHO1 181419Z 23012KT 09/00 A2992 RMK A01 T00920003  RH  053%=      5-min Rain = 0
KHO1 181420Z 23012KT 09/00 A2992 RMK A01 T00920003  RH  054%=      5-min Rain = 0
KHO1 181421Z 23012KT 09/00 A2992 RMK A01 T00910003  RH  054%=      5-min Rain = 0
KHO1 181422Z 23013KT 09/00 A2992 RMK A01 T00900003  RH  054%=      5-min Rain = 0
KHO1 181423Z 23012KT 09/00 A2991 RMK A01 T00900003  RH  054%=      5-min Rain = 0
KHO1 181424Z 23014KT 09/00 A2991 RMK A01 T00910003  RH  054%=      5-min Rain = 0
KHO1 181425Z 23014KT 09/00 A2991 RMK A01 T00920003  RH  054%=      5-min Rain = 0
KHO1 181426Z 23015KT 09/00 A2991 RMK A01 T00930002  RH  053%=      5-min Rain = 0
KHO1 181427Z 23014KT 09/00 A2991 RMK A01 T00940002  RH  053%=      5-min Rain = 0
KHO1 181428Z 23012KT 09/00 A2991 RMK A01 T00940002  RH  053%=      5-min Rain = 0
KHO1 181429Z 23012KT 09/00 A2991 RMK A01 T00940002  RH  053%=      5-min Rain = 0
KHO1 181430Z 23013KT 09/00 A2991 RMK A01 T00940002  RH  053%=      5-min Rain = 0
KHO1 181431Z 23013KT 09/00 A2991 RMK A01 T00940002  RH  052%=      5-min Rain = 0
KHO1 181432Z 23013KT 10/00 A2991 RMK A01 T00950001  RH  052%=      5-min Rain = 0
KHO1 181433Z 23012KT 10/00 A2991 RMK A01 T00950001  RH  052%=      5-min Rain = 0
KHO1 181434Z 23014KT 10/00 A2991 RMK A01 T00960001  RH  052%=      5-min Rain = 0
KHO1 181435Z 24012G17KT 10/00 A2991 RMK A01 T00970001  RH  051%=      5-min Rain = 0
KHO1 181436Z 24013KT 10/00 A2991 RMK A01 T00970000  RH  051%=      5-min Rain = 0
KHO1 181437Z 24013KT 10/00 A2991 RMK A01 T00980000  RH  051%=      5-min Rain = 0
KHO1 181438Z 24012KT 10/00 A2991 RMK A01 T00980000  RH  051%=      5-min Rain = 0
KHO1 181439Z 24012KT 10/00 A2992 RMK A01 T009800-0  RH  050%=      5-min Rain = 0
KHO1 181440Z 24012KT 10/00 A2991 RMK A01 T009900-0  RH  050%=      5-min Rain = 0
KHO1 181441Z 24013KT 10/00 A2991 RMK A01 T009900-0  RH  050%=      5-min Rain = 0
KHO1 181442Z 24012KT 10/00 A2991 RMK A01 T010000-0  RH  049%=      5-min Rain = 0
KHO1 181443Z 24012KT 10/M00 A2991 RMK A01 T01021001  RH  049%=      5-min Rain = 0
KHO1 181444Z 24014KT 10/M00 A2991 RMK A01 T01041002  RH  048%=      5-min Rain = 0
KHO1 181445Z 24014KT 11/M00 A2991 RMK A01 T01061002  RH  047%=      5-min Rain = 0
KHO1 181446Z 24015KT 11/M00 A2991 RMK A01 T01081003  RH  046%=      5-min Rain = 0
KHO1 181447Z 23015KT 11/M00 A2991 RMK A01 T01111004  RH  045%=      5-min Rain = 0
KHO1 181448Z 23017KT 11/M01 A2991 RMK A01 T01141006  RH  044%=      5-min Rain = 0
KHO1 181449Z 23017KT 12/M01 A2991 RMK A01 T01151006  RH  043%=      5-min Rain = 0
KHO1 181450Z 23017KT 12/M01 A2991 RMK A01 T01161006  RH  043%=      5-min Rain = 0
KHO1 181451Z 23017KT 12/M01 A2991 RMK A01 T01171007  RH  042%=      5-min Rain = 0
KHO1 181452Z 23017KT 12/M01 A2991 RMK A01 T01181007  RH  042%=      5-min Rain = 0
KHO1 181453Z 23017KT 12/M01 A2991 RMK A01 T01201008  RH  041%=      5-min Rain = 0
KHO1 181454Z 23018KT 12/M01 A299 RMK A01 T01211008  RH  041%=      5-min Rain = 0
KHO1 181455Z 23016KT 12/M01 A2991 RMK A01 T01221009  RH  040%=      5-min Rain = 0
KHO1 181456Z 23017KT 12/M01 A2991 RMK A01 T01231009  RH  040%=      5-min Rain = 0
KHO1 181457Z 23016KT 12/M01 A2991 RMK A01 T01241009  RH  040%=      5-min Rain = 0
KHO1 181458Z 23017KT 13/M01 A2991 RMK A01 T01251010  RH  039%=      5-min Rain = 0
KHO1 181459Z 23017KT 13/M01 A2991 RMK A01 T01261010  RH  039%=      5-min Rain = 0
KHO1 181500Z 23018KT 13/M01 A2991 RMK A01 T01271011  RH  038%=      5-min Rain = 0
KHO1 181501Z 23018KT 13/M01 A2991 RMK A01 T01281011  RH  038%=      5-min Rain = 0
KHO1 181502Z 23016KT 13/M01 A2991 RMK A01 T01291010  RH  038%=      5-min Rain = 0
KHO1 181503Z 23015KT 13/M01 A2991 RMK A01 T01291010  RH  038%=      5-min Rain = 0
KHO1 181504Z 23017KT 13/M01 A2991 RMK A01 T01291009  RH  038%=      5-min Rain = 0
KHO1 181505Z 23015KT 13/M01 A2991 RMK A01 T01291008  RH  039%=      5-min Rain = 0
KHO1 181506Z 23017KT 13/M01 A2991 RMK A01 T01291009  RH  039%=      5-min Rain = 0
KHO1 181507Z 23014KT 13/M01 A2991 RMK A01 T01291008  RH  039%=      5-min Rain = 0
KHO1 181508Z 23016KT 13/M01 A2991 RMK A01 T01291007  RH  039%=      5-min Rain = 0
KHO1 181509Z 23018KT 13/M01 A2991 RMK A01 T01291008  RH  039%=      5-min Rain = 0
KHO1 181510Z 23014KT 13/M01 A2991 RMK A01 T01291007  RH  039%=      5-min Rain = 0
KHO1 181511Z 23014KT 13/M01 A2991 RMK A01 T01291006  RH  039%=      5-min Rain = 0
KHO1 181512Z 24016KT 13/M01 A2991 RMK A01 T01291007  RH  039%=      5-min Rain = 0
KHO1 181513Z 24014KT 13/M01 A2991 RMK A01 T01301006  RH  039%=      5-min Rain = 0
KHO1 181514Z 24013KT 13/M01 A2991 RMK A01 T01301005  RH  040%=      5-min Rain = 0
KHO1 181515Z 24017KT 13/M01 A2991 RMK A01 T01301005  RH  039%=      5-min Rain = 0
KHO1 181516Z 24015KT 13/M01 A2991 RMK A01 T01301005  RH  039%=      5-min Rain = 0
KHO1 181517Z 24016KT 13/M01 A2991 RMK A01 T01301005  RH  039%=      5-min Rain = 0
KHO1 181518Z 24015KT 13/M01 A2991 RMK A01 T01311005  RH  039%=      5-min Rain = 0
KHO1 181519Z 24016KT 13/M01 A2991 RMK A01 T01311005  RH  039%=      5-min Rain = 0
KHO1 181520Z 24017KT 13/M01 A2991 RMK A01 T01311005  RH  039%=      5-min Rain = 0
KHO1 181521Z 24015KT 13/M00 A2991 RMK A01 T01311004  RH  039%=      5-min Rain = 0
KHO1 181522Z 24015KT 13/M00 A2991 RMK A01 T01311004  RH  039%=      5-min Rain = 0
KHO1 181523Z 24017KT 13/M01 A2991 RMK A01 T01321006  RH  039%=      5-min Rain = 0
KHO1 181524Z 24015KT 13/M01 A2991 RMK A01 T01321005  RH  039%=      5-min Rain = 0
KHO1 181525Z 24018KT 13/M01 A2991 RMK A01 T01321005  RH  039%=      5-min Rain = 0
KHO1 181526Z 25018KT 13/M01 A2992 RMK A01 T01321005  RH  039%=      5-min Rain = 0
KHO1 181527Z 24014KT 13/M00 A2992 RMK A01 T01331004  RH  039%=      5-min Rain = 0
KHO1 181528Z 24016KT 13/M00 A2992 RMK A01 T01331004  RH  039%=      5-min Rain = 0
KHO1 181529Z 24017KT 13/M01 A2991 RMK A01 T01331005  RH  039%=      5-min Rain = 0
KHO1 181530Z 24018KT 13/M01 A2991 RMK A01 T01331006  RH  038%=      5-min Rain = 0
KHO1 181531Z 24017KT 13/M01 A2991 RMK A01 T01341006  RH  038%=      5-min Rain = 0
KHO1 181532Z 24017KT 14/M01 A2992 RMK A01 T01351006  RH  038%=      5-min Rain = 0
KHO1 181533Z 24016KT 14/M01 A2991 RMK A01 T01361006  RH  038%=      5-min Rain = 0
KHO1 181534Z 25018KT 14/M01 A2991 RMK A01 T01361006  RH  037%=      5-min Rain = 0
KHO1 181535Z 25018KT 14/M01 A2991 RMK A01 T01371007  RH  037%=      5-min Rain = 0
KHO1 181536Z 25015KT 14/M01 A2991 RMK A01 T01381006  RH  037%=      5-min Rain = 0
KHO1 181537Z 25016KT 14/M01 A2992 RMK A01 T01391006  RH  037%=      5-min Rain = 0
KHO1 181538Z 25016KT 14/M01 A2992 RMK A01 T01401006  RH  037%=      5-min Rain = 0
KHO1 181539Z 25015KT 14/M01 A2992 RMK A01 T01411006  RH  037%=      5-min Rain = 0
KHO1 181540Z 25019G24KT 14/M01 A2992 RMK A01 T01411009  RH  035%=      5-min Rain = 0
KHO1 181541Z 24020KT 14/M01 A2992 RMK A01 T01421012  RH  035%=      5-min Rain = 0
KHO1 181542Z 24016KT 14/M01 A2992 RMK A01 T01431011  RH  035%=      5-min Rain = 0
KHO1 181543Z 25016KT 14/M01 A2992 RMK A01 T01431011  RH  034%=      5-min Rain = 0
KHO1 181544Z 24017KT 14/M01 A2992 RMK A01 T01441011  RH  034%=      5-min Rain = 0
KHO1 181545Z 25017G22KT 15/M01 A2992 RMK A01 T01451012  RH  034%=      5-min Rain = 0
KHO1 181546Z 25018KT 15/M01 A2991 RMK A01 T01461013  RH  034%=      5-min Rain = 0
KHO1 181547Z 24018G23KT 15/M01 A2991 RMK A01 T01471013  RH  033%=      5-min Rain = 0
KHO1 181548Z 24019G24KT 15/M01 A2991 RMK A01 T01481013  RH  033%=      5-min Rain = 0
KHO1 181549Z 24021KT 15/M01 A2991 RMK A01 T01491014  RH  033%=      5-min Rain = 0
KHO1 181550Z 25020G25KT 15/M01 A2991 RMK A01 T01481014  RH  033%=      5-min Rain = 0
KHO1 181551Z 24021KT 15/M01 A2991 RMK A01 T01481014  RH  033%=      5-min Rain = 0
KHO1 181552Z 24023KT 15/M01 A2991 RMK A01 T01481014  RH  033%=      5-min Rain = 0
KHO1 181553Z 24017KT 15/M01 A2991 RMK A01 T01491012  RH  033%=      5-min Rain = 0
KHO1 181554Z 24019KT 15/M01 A2991 RMK A01 T01491012  RH  033%=      5-min Rain = 0
KHO1 181555Z 24020G26KT 15/M01 A2991 RMK A01 T01501013  RH  033%=      5-min Rain = 0
KHO1 181556Z 23021G27KT 15/M01 A2991 RMK A01 T01491013  RH  033%=      5-min Rain = 0
KHO1 181557Z 24023G29KT 15/M01 A2991 RMK A01 T01501012  RH  033%=      5-min Rain = 0
KHO1 181558Z 24025KT 15/M01 A2991 RMK A01 T01501013  RH  033%=      5-min Rain = 0
KHO1 181559Z 25024G29KT 15/M01 A2991 RMK A01 T01501013  RH  033%=      5-min Rain = 0
KHO1 181600Z 24021KT 15/M01 A2991 RMK A01 T01501013  RH  033%=      5-min Rain = 0
KHO1 181601Z 24025KT 15/M01 A2991 RMK A01 T01501013  RH  033%=      5-min Rain = 0
KHO1 181602Z 25025KT 15/M01 A2992 RMK A01 T01501013  RH  033%=      5-min Rain = 0
KHO1 181603Z 25022KT 15/M01 A2991 RMK A01 T01501013  RH  033%=      5-min Rain = 0
KHO1 181604Z 24021G26KT 15/M01 A2991 RMK A01 T01511012  RH  033%=      5-min Rain = 0
KHO1 181605Z 24023KT 15/M01 A2991 RMK A01 T01511012  RH  032%=      5-min Rain = 0
KHO1 181606Z 24026G31KT 15/M01 A2991 RMK A01 T01521013  RH  032%=      5-min Rain = 0
KHO1 181607Z 24026KT 15/M01 A2991 RMK A01 T01521013  RH  032%=      5-min Rain = 0
KHO1 181608Z 24024KT 15/M01 A2991 RMK A01 T01521013  RH  032%=      5-min Rain = 0
KHO1 181609Z 24021G27KT 15/M01 A2991 RMK A01 T01521012  RH  032%=      5-min Rain = 0
KHO1 181610Z 24022G27KT 15/M01 A2991 RMK A01 T01531012  RH  032%=      5-min Rain = 0
KHO1 181611Z 24025KT 15/M01 A2992 RMK A01 T01531012  RH  032%=      5-min Rain = 0
KHO1 181612Z 25026KT 15/M01 A2992 RMK A01 T01521012  RH  032%=      5-min Rain = 0
KHO1 181613Z 25025KT 15/M01 A2992 RMK A01 T01511012  RH  033%=      5-min Rain = 0
KHO1 181614Z 25021KT 15/M01 A2992 RMK A01 T01511011  RH  033%=      5-min Rain = 0
KHO1 181615Z 25022G30KT 15/M01 A2992 RMK A01 T01521010  RH  033%=      5-min Rain = 0
KHO1 181616Z 25024G29KT 15/M01 A2992 RMK A01 T01521011  RH  033%=      5-min Rain = 0
KHO1 181617Z 25027G34KT 15/M01 A2992 RMK A01 T01521011  RH  033%=      5-min Rain = 0
KHO1 181618Z 25026G31KT 15/M01 A2992 RMK A01 T01511011  RH  033%=      5-min Rain = 0
KHO1 181619Z 25026KT 15/M01 A2992 RMK A01 T01511012  RH  033%=      5-min Rain = 0
KHO1 181620Z 25022G31KT 15/M01 A2992 RMK A01 T01511010  RH  033%=      5-min Rain = 0
KHO1 181621Z 25028G33KT 15/M01 A2992 RMK A01 T01521011  RH  033%=      5-min Rain = 0
KHO1 181622Z 25027KT 15/M01 A2992 RMK A01 T01501012  RH  033%=      5-min Rain = 0
KHO1 181623Z 26026G31KT 15/M01 A2992 RMK A01 T01501011  RH  033%=      5-min Rain = 0
KHO1 181624Z 26025G30KT 15/M01 A2991 RMK A01 T01491011  RH  033%=      5-min Rain = 0
KHO1 181625Z 24023G31KT 15/M01 A2991 RMK A01 T01501010  RH  033%=      5-min Rain = 0
KHO1 181626Z 25026KT 15/M01 A2991 RMK A01 T01481010  RH  034%=      5-min Rain = 0
KHO1 181627Z 25021KT 15/M01 A2991 RMK A01 T01471009  RH  034%=      5-min Rain = 0
KHO1 181628Z 25024KT 15/M01 A2992 RMK A01 T01471009  RH  034%=      5-min Rain = 0
KHO1 181629Z 26021G27KT 15/M01 A2991 RMK A01 T01481009  RH  034%=      5-min Rain = 0
KHO1 181630Z 26022KT 15/M01 A2991 RMK A01 T01471009  RH  034%=      5-min Rain = 0
KHO1 181631Z 26028KT 15/M01 A2991 RMK A01 T01461010  RH  034%=      5-min Rain = 0
KHO1 181632Z 26028KT 15/M01 A2991 RMK A01 T01471009  RH  034%=      5-min Rain = 0
KHO1 181633Z 26024KT 15/M01 A2991 RMK A01 T01481009  RH  034%=      5-min Rain = 0
KHO1 181634Z 26027G32KT 15/M01 A2991 RMK A01 T01491009  RH  034%=      5-min Rain = 0
KHO1 181635Z 26024KT 15/M01 A2991 RMK A01 T01501008  RH  034%=      5-min Rain = 0
KHO1 181636Z 26023G28KT 15/M01 A2991 RMK A01 T01511008  RH  034%=      5-min Rain = 0
KHO1 181637Z 26024KT 15/M01 A2991 RMK A01 T01521008  RH  034%=      5-min Rain = 0
KHO1 181638Z 26024KT 15/M01 A2991 RMK A01 T01521008  RH  033%=      5-min Rain = 0
KHO1 181639Z 26024KT 15/M01 A2991 RMK A01 T01521009  RH  033%=      5-min Rain = 0
KHO1 181640Z 26024KT 15/M01 A2991 RMK A01 T01531008  RH  033%=      5-min Rain = 0
KHO1 181641Z 26022KT 16/M01 A2991 RMK A01 T01551007  RH  033%=      5-min Rain = 0
KHO1 181642Z 26024G31KT 16/M01 A2991 RMK A01 T01571007  RH  033%=      5-min Rain = 0
KHO1 181643Z 26028KT 16/M01 A2991 RMK A01 T01571009  RH  032%=      5-min Rain = 0
KHO1 181644Z 26026G31KT 16/M01 A2991 RMK A01 T01571009  RH  032%=      5-min Rain = 0
KHO1 181645Z 26027G32KT 16/M01 A2991 RMK A01 T01581008  RH  032%=      5-min Rain = 0
KHO1 181646Z 26022G28KT 16/M01 A2991 RMK A01 T01591007  RH  032%=      5-min Rain = 0
KHO1 181647Z 26027G34KT 16/M01 A2991 RMK A01 T01601008  RH  032%=      5-min Rain = 0
KHO1 181648Z 26023G29KT 16/M01 A2991 RMK A01 T01601008  RH  032%=      5-min Rain = 0
KHO1 181649Z 26020KT 16/M01 A2991 RMK A01 T01601008  RH  032%=      5-min Rain = 0
KHO1 181650Z 26018KT 16/M01 A299 RMK A01 T01601007  RH  032%=      5-min Rain = 0
KHO1 181651Z 26025KT 16/M01 A2991 RMK A01 T01611008  RH  032%=      5-min Rain = 0
KHO1 181652Z 27027KT 16/M01 A299 RMK A01 T01611008  RH  032%=      5-min Rain = 0
KHO1 181653Z 27026G32KT 16/M01 A299 RMK A01 T01611008  RH  031%=      5-min Rain = 0
KHO1 181654Z 26023G32KT 16/M01 A299 RMK A01 T01631007  RH  032%=      5-min Rain = 0
KHO1 181655Z 26026KT 16/M01 A299 RMK A01 T01631008  RH  031%=      5-min Rain = 0
KHO1 181656Z 26024G29KT 16/M01 A299 RMK A01 T01621007  RH  031%=      5-min Rain = 0
KHO1 181657Z 26026KT 16/M01 A2991 RMK A01 T01641007  RH  031%=      5-min Rain = 0
KHO1 181658Z 26024KT 16/M01 A2991 RMK A01 T01641008  RH  031%=      5-min Rain = 0
KHO1 181659Z 26027G32KT 16/M01 A2991 RMK A01 T01641008  RH  031%=      5-min Rain = 0
KHO1 181700Z 26027KT 16/M01 A2991 RMK A01 T01631008  RH  031%=      5-min Rain = 0
KHO1 181701Z 26029KT 16/M01 A2991 RMK A01 T01621010  RH  031%=      5-min Rain = 0
KHO1 181702Z 26026KT 16/M01 A2991 RMK A01 T01611010  RH  031%=      5-min Rain = 0
KHO1 181703Z 25022G27KT 16/M01 A2991 RMK A01 T01601009  RH  031%=      5-min Rain = 0
KHO1 181704Z 26025KT 16/M01 A2991 RMK A01 T01591009  RH  032%=      5-min Rain = 0
KHO1 181705Z 26025G30KT 16/M01 A2991 RMK A01 T01591009  RH  032%=      5-min Rain = 0
KHO1 181706Z 26027KT 16/M01 A2991 RMK A01 T01601009  RH  032%=      5-min Rain = 0
KHO1 181707Z 26026G31KT 16/M01 A2991 RMK A01 T01591009  RH  032%=      5-min Rain = 0
KHO1 181708Z 26026G33KT 16/M01 A2991 RMK A01 T01581010  RH  032%=      5-min Rain = 0
KHO1 181709Z 26028KT 16/M01 A2991 RMK A01 T01581010  RH  032%=      5-min Rain = 0
KHO1 181710Z 26027KT 16/M01 A2991 RMK A01 T01581010  RH  032%=      5-min Rain = 0
KHO1 181711Z 26021G27KT 16/M01 A299 RMK A01 T01591009  RH  032%=      5-min Rain = 0
KHO1 181712Z 26021KT 16/M01 A299 RMK A01 T01591009  RH  032%=      5-min Rain = 0
KHO1 181713Z 26021KT 16/M01 A299 RMK A01 T01591008  RH  032%=      5-min Rain = 0
KHO1 181714Z 25022G27KT 16/M01 A299 RMK A01 T01601008  RH  032%=      5-min Rain = 0
KHO1 181715Z 27020G25KT 16/M01 A299 RMK A01 T01611008  RH  032%=      5-min Rain = 0
KHO1 181716Z 27022G27KT 16/M01 A299 RMK A01 T01611008  RH  031%=      5-min Rain = 0
KHO1 181717Z 26024KT 16/M01 A299 RMK A01 T01611008  RH  031%=      5-min Rain = 0
KHO1 181718Z 27022KT 16/M01 A299 RMK A01 T01611008  RH  031%=      5-min Rain = 0
KHO1 181719Z 26020G25KT 16/M01 A299 RMK A01 T01621007  RH  031%=      5-min Rain = 0
KHO1 181720Z 26023KT 16/M01 A299 RMK A01 T01631007  RH  031%=      5-min Rain = 0
KHO1 181721Z 26024KT 16/M01 A299 RMK A01 T01641007  RH  031%=      5-min Rain = 0
KHO1 181722Z 26021KT 17/M01 A299 RMK A01 T01651007  RH  031%=      5-min Rain = 0
KHO1 181723Z 26020KT 17/M01 A299 RMK A01 T01661006  RH  031%=      5-min Rain = 0
KHO1 181724Z 25022KT 17/M01 A299 RMK A01 T01671006  RH  031%=      5-min Rain = 0
KHO1 181725Z 25021KT 17/M01 A299 RMK A01 T01661006  RH  031%=      5-min Rain = 0
KHO1 181726Z 26022G28KT 17/M01 A299 RMK A01 T01651007  RH  031%=      5-min Rain = 0
KHO1 181727Z 26019KT 17/M01 A299 RMK A01 T01651006  RH  031%=      5-min Rain = 0
KHO1 181728Z 27020G25KT 17/M01 A299 RMK A01 T01661006  RH  031%=      5-min Rain = 0
KHO1 181729Z 26021KT 17/M01 A299 RMK A01 T01651007  RH  031%=      5-min Rain = 0
KHO1 181730Z 27020G25KT 17/M01 A299 RMK A01 T01651007  RH  031%=      5-min Rain = 0
KHO1 181731Z 27023G28KT 16/M01 A299 RMK A01 T01641008  RH  031%=      5-min Rain = 0
KHO1 181732Z 26021G29KT 16/M01 A299 RMK A01 T01631008  RH  031%=      5-min Rain = 0
KHO1 181733Z 26026KT 16/M01 A299 RMK A01 T01631008  RH  031%=      5-min Rain = 0
KHO1 181734Z 26021KT 16/M01 A299 RMK A01 T01631007  RH  031%=      5-min Rain = 0
KHO1 181735Z 26020KT 16/M01 A299 RMK A01 T01641006  RH  031%=      5-min Rain = 0
KHO1 181736Z 26023KT 17/M01 A2989 RMK A01 T01651006  RH  031%=      5-min Rain = 0
KHO1 181737Z 26021G26KT 17/M01 A2989 RMK A01 T01661006  RH  031%=      5-min Rain = 0
KHO1 181738Z 27025KT 17/M01 A2989 RMK A01 T01651007  RH  031%=      5-min Rain = 0
KHO1 181739Z 26023G28KT 17/M01 A2989 RMK A01 T01661006  RH  031%=      5-min Rain = 0
KHO1 181740Z 27022KT 17/M01 A2989 RMK A01 T01661006  RH  031%=      5-min Rain = 0
KHO1 181741Z 26024G29KT 17/M01 A2989 RMK A01 T01661007  RH  031%=      5-min Rain = 0
KHO1 181742Z 27024KT 17/M01 A2989 RMK A01 T01661006  RH  031%=      5-min Rain = 0
KHO1 181743Z 27025KT 17/M01 A2989 RMK A01 T01661007  RH  031%=      5-min Rain = 0
KHO1 181744Z 27022G29KT 17/M01 A2988 RMK A01 T01661006  RH  031%=      5-min Rain = 0
KHO1 181745Z 26021G28KT 17/M01 A2988 RMK A01 T01671006  RH  031%=      5-min Rain = 0
KHO1 181746Z 27024G30KT 17/M01 A2988 RMK A01 T01671007  RH  031%=      5-min Rain = 0
KHO1 181747Z 27028KT 17/M01 A2988 RMK A01 T01671007  RH  031%=      5-min Rain = 0
KHO1 181748Z 27025G34KT 17/M01 A2988 RMK A01 T01671007  RH  031%=      5-min Rain = 0
KHO1 181749Z 27020KT 17/M01 A2988 RMK A01 T01691005  RH  031%=      5-min Rain = 0
KHO1 181750Z 27025G31KT 17/M01 A2988 RMK A01 T01701006  RH  030%=      5-min Rain = 0
KHO1 181751Z 27024G30KT 17/M01 A2988 RMK A01 T01711006  RH  030%=      5-min Rain = 0
KHO1 181752Z 27026KT 17/M01 A2988 RMK A01 T01701007  RH  030%=      5-min Rain = 0
KHO1 181753Z 26022KT 17/M01 A2988 RMK A01 T01701007  RH  030%=      5-min Rain = 0
KHO1 181754Z 27024G29KT 17/M01 A2988 RMK A01 T01701007  RH  030%=      5-min Rain = 0
KHO1 181755Z 27022G29KT 17/M01 A2988 RMK A01 T01701007  RH  030%=      5-min Rain = 0
KHO1 181756Z 27024G30KT 17/M01 A2988 RMK A01 T01691008  RH  030%=      5-min Rain = 0
KHO1 181757Z 26023G31KT 17/M01 A2988 RMK A01 T01681008  RH  030%=      5-min Rain = 0
KHO1 181758Z 26025G30KT 17/M01 A2988 RMK A01 T01671008  RH  030%=      5-min Rain = 0
KHO1 181759Z 26025G31KT 17/M01 A2988 RMK A01 T01671009  RH  030%=      5-min Rain = 0
KHO1 181800Z 26025KT 17/M01 A2988 RMK A01 T01661009  RH  030%=      5-min Rain = 0
KHO1 181801Z 26023G28KT 17/M01 A2988 RMK A01 T01651008  RH  031%=      5-min Rain = 0
KHO1 181802Z 26025KT 17/M01 A2989 RMK A01 T01651009  RH  031%=      5-min Rain = 0
KHO1 181803Z 26026KT 17/M01 A2989 RMK A01 T01651009  RH  030%=      5-min Rain = 0
KHO1 181804Z 26024KT 17/M01 A2989 RMK A01 T01651009  RH  031%=      5-min Rain = 0
KHO1 181805Z 27025G30KT 17/M01 A2989 RMK A01 T01651009  RH  031%=      5-min Rain = 0
KHO1 181806Z 26022KT 17/M01 A2989 RMK A01 T01651009  RH  031%=      5-min Rain = 0
KHO1 181807Z 26023G29KT 17/M01 A2989 RMK A01 T01651008  RH  031%=      5-min Rain = 0
KHO1 181808Z 26026KT 17/M01 A2989 RMK A01 T01661009  RH  030%=      5-min Rain = 0
KHO1 181809Z 26022G28KT 17/M01 A2989 RMK A01 T01651009  RH  031%=      5-min Rain = 0
KHO1 181810Z 26022KT 17/M01 A2989 RMK A01 T01651008  RH  031%=      5-min Rain = 0
KHO1 181811Z 26022KT 17/M01 A2989 RMK A01 T01661008  RH  031%=      5-min Rain = 0
KHO1 181812Z 26019G24KT 17/M01 A2989 RMK A01 T01661008  RH  031%=      5-min Rain = 0
KHO1 181813Z 27020G27KT 17/M01 A2989 RMK A01 T01661008  RH  030%=      5-min Rain = 0
KHO1 181814Z 26023G29KT 17/M01 A2989 RMK A01 T01661009  RH  030%=      5-min Rain = 0
KHO1 181815Z 27019KT 17/M01 A2989 RMK A01 T01661008  RH  031%=      5-min Rain = 0
KHO1 181816Z 26018KT 17/M01 A2989 RMK A01 T01661007  RH  031%=      5-min Rain = 0
KHO1 181817Z 26019KT 17/M01 A2989 RMK A01 T01671007  RH  031%=      5-min Rain = 0
KHO1 181818Z 26015G21KT 17/M01 A2989 RMK A01 T01671006  RH  031%=      5-min Rain = 0
KHO1 181819Z 26023KT 17/M01 A2989 RMK A01 T01671008  RH  030%=      5-min Rain = 0
KHO1 181820Z 26024KT 17/M01 A2989 RMK A01 T01661008  RH  031%=      5-min Rain = 0
KHO1 181821Z 26021KT 17/M01 A2989 RMK A01 T01651008  RH  031%=      5-min Rain = 0
KHO1 181822Z 27021KT 17/M01 A2989 RMK A01 T01661008  RH  031%=      5-min Rain = 0
KHO1 181823Z 27021KT 17/M01 A2989 RMK A01 T01661008  RH  030%=      5-min Rain = 0
KHO1 181824Z 27021KT 17/M01 A2988 RMK A01 T01671009  RH  030%=      5-min Rain = 0
KHO1 181825Z 27022G28KT 17/M01 A2988 RMK A01 T01661009  RH  030%=      5-min Rain = 0
KHO1 181826Z 27021KT 17/M01 A2988 RMK A01 T01661009  RH  030%=      5-min Rain = 0
KHO1 181827Z 26021G27KT 17/M01 A2988 RMK A01 T01671009  RH  030%=      5-min Rain = 0
KHO1 181828Z 26026KT 17/M01 A2988 RMK A01 T01661010  RH  030%=      5-min Rain = 0
KHO1 181829Z 26024G30KT 17/M01 A2988 RMK A01 T01661010  RH  030%=      5-min Rain = 0
KHO1 181830Z 26024KT 17/M01 A2988 RMK A01 T01661009  RH  030%=      5-min Rain = 0
KHO1 181831Z 27022G28KT 17/M01 A2988 RMK A01 T01661008  RH  030%=      5-min Rain = 0
KHO1 181832Z 26022G27KT 17/M01 A2988 RMK A01 T01671008  RH  030%=      5-min Rain = 0
KHO1 181833Z 26026KT 17/M01 A2988 RMK A01 T01671009  RH  030%=      5-min Rain = 0
KHO1 181834Z 26024KT 17/M01 A2988 RMK A01 T01661009  RH  030%=      5-min Rain = 0
KHO1 181835Z 26024KT 17/M01 A2988 RMK A01 T01651009  RH  030%=      5-min Rain = 0
KHO1 181836Z 26018G23KT 17/M01 A2987 RMK A01 T01671006  RH  031%=      5-min Rain = 0
KHO1 181837Z 26021G26KT 17/M01 A2988 RMK A01 T01691007  RH  030%=      5-min Rain = 0
KHO1 181838Z 26023G28KT 17/M01 A2988 RMK A01 T01681008  RH  030%=      5-min Rain = 0
KHO1 181839Z 27026G31KT 17/M01 A2988 RMK A01 T01681009  RH  030%=      5-min Rain = 0
KHO1 181840Z 27025KT 17/M01 A2987 RMK A01 T01671008  RH  030%=      5-min Rain = 0
KHO1 181841Z 27025KT 17/M01 A2987 RMK A01 T01671009  RH  030%=      5-min Rain = 0
KHO1 181842Z 27022KT 17/M01 A2987 RMK A01 T01671008  RH  030%=      5-min Rain = 0
KHO1 181843Z 27023G28KT 17/M01 A2987 RMK A01 T01661008  RH  031%=      5-min Rain = 0
KHO1 181844Z 26023G28KT 17/M01 A2987 RMK A01 T01671007  RH  031%=      5-min Rain = 0
KHO1 181845Z 26025KT 17/M01 A2987 RMK A01 T01661007  RH  031%=      5-min Rain = 0
KHO1 181846Z 26022G27KT 17/M01 A2987 RMK A01 T01651007  RH  031%=      5-min Rain = 0
KHO1 181847Z 26027KT 17/M01 A2987 RMK A01 T01651007  RH  031%=      5-min Rain = 0
KHO1 181848Z 26026KT 17/M01 A2987 RMK A01 T01651008  RH  031%=      5-min Rain = 0
KHO1 181849Z 26024KT 16/M01 A2986 RMK A01 T01641008  RH  031%=      5-min Rain = 0
KHO1 181850Z 26024KT 17/M01 A2986 RMK A01 T01651007  RH  031%=      5-min Rain = 0
KHO1 181851Z 26024KT 17/M01 A2986 RMK A01 T01661006  RH  031%=      5-min Rain = 0
KHO1 181852Z 26023KT 17/M01 A2986 RMK A01 T01691005  RH  031%=      5-min Rain = 0
KHO1 181853Z 26025KT 17/M01 A2986 RMK A01 T01701005  RH  030%=      5-min Rain = 0
KHO1 181854Z 26022G27KT 17/M01 A2986 RMK A01 T01711005  RH  030%=      5-min Rain = 0
KHO1 181855Z 26024G29KT 17/M01 A2986 RMK A01 T01721006  RH  030%=      5-min Rain = 0
KHO1 181856Z 27026KT 17/M01 A2986 RMK A01 T01721007  RH  030%=      5-min Rain = 0
KHO1 181857Z 26023G28KT 17/M01 A2986 RMK A01 T01711006  RH  030%=      5-min Rain = 0
KHO1 181858Z 26024G29KT 17/M01 A2986 RMK A01 T01721005  RH  030%=      5-min Rain = 0
KHO1 181859Z 26026G32KT 17/M01 A2986 RMK A01 T01711007  RH  030%=      5-min Rain = 0
KHO1 181900Z 26026KT 17/M01 A2986 RMK A01 T01701008  RH  030%=      5-min Rain = 0
KHO1 181901Z 27026G31KT 17/M01 A2986 RMK A01 T01691007  RH  030%=      5-min Rain = 0
KHO1 181902Z 26024KT 17/M01 A2986 RMK A01 T01691007  RH  030%=      5-min Rain = 0
KHO1 181903Z 26021G29KT 17/M01 A2985 RMK A01 T01701006  RH  030%=      5-min Rain = 0
KHO1 181904Z 25026G31KT 17/M01 A2985 RMK A01 T01711006  RH  030%=      5-min Rain = 0
KHO1 181905Z 26025G31KT 17/M01 A2985 RMK A01 T01711007  RH  030%=      5-min Rain = 0
KHO1 181906Z 26024KT 17/M01 A2985 RMK A01 T01711006  RH  030%=      5-min Rain = 0
KHO1 181907Z 27020G25KT 17/M01 A2985 RMK A01 T01721006  RH  030%=      5-min Rain = 0
KHO1 181908Z 26021KT 17/M01 A2985 RMK A01 T01731005  RH  030%=      5-min Rain = 0
KHO1 181909Z 26025G30KT 17/M01 A2985 RMK A01 T01741006  RH  029%=      5-min Rain = 0
KHO1 181910Z 25024G30KT 17/M01 A2984 RMK A01 T01731007  RH  029%=      5-min Rain = 0
KHO1 181911Z 25025G31KT 17/M01 A2984 RMK A01 T01731008  RH  029%=      5-min Rain = 0
KHO1 181912Z 26027KT 17/M01 A2984 RMK A01 T01731009  RH  029%=      5-min Rain = 0
KHO1 181913Z 26025G30KT 17/M01 A2984 RMK A01 T01721008  RH  029%=      5-min Rain = 0
KHO1 181914Z 26026G31KT 17/M01 A2984 RMK A01 T01721008  RH  029%=      5-min Rain = 0
KHO1 181915Z 26021KT 17/M01 A2984 RMK A01 T01721007  RH  030%=      5-min Rain = 0
KHO1 181916Z 26021G26KT 17/M01 A2984 RMK A01 T01741005  RH  030%=      5-min Rain = 0
KHO1 181917Z 25023G30KT 18/M01 A2984 RMK A01 T01761005  RH  029%=      5-min Rain = 0
KHO1 181918Z 25025KT 18/M01 A2984 RMK A01 T01751006  RH  029%=      5-min Rain = 0
KHO1 181919Z 25023KT 18/M01 A2983 RMK A01 T01751005  RH  029%=      5-min Rain = 0
KHO1 181920Z 25022G27KT 18/M01 A2983 RMK A01 T01771005  RH  029%=      5-min Rain = 0
KHO1 181921Z 26023KT 18/M01 A2984 RMK A01 T01781007  RH  028%=      5-min Rain = 0
KHO1 181922Z 26018G23KT 18/M01 A2983 RMK A01 T01771007  RH  029%=      5-min Rain = 0
KHO1 181923Z 25021KT 18/M01 A2983 RMK A01 T01791005  RH  029%=      5-min Rain = 0
KHO1 181924Z 25024KT 18/M01 A2983 RMK A01 T01781007  RH  029%=      5-min Rain = 0
KHO1 181925Z 24026KT 18/M01 A2983 RMK A01 T01761008  RH  029%=      5-min Rain = 0
KHO1 181926Z 25024KT 18/M01 A2983 RMK A01 T01761007  RH  029%=      5-min Rain = 0
KHO1 181927Z 25025KT 18/M01 A2983 RMK A01 T01771006  RH  029%=      5-min Rain = 0
KHO1 181928Z 24021G27KT 18/M00 A2983 RMK A01 T01791004  RH  029%=      5-min Rain = 0
KHO1 181929Z 26023KT 18/M01 A2983 RMK A01 T01811006  RH  028%=      5-min Rain = 0
KHO1 181930Z 25024KT 18/M01 A2983 RMK A01 T01801009  RH  028%=      5-min Rain = 0
KHO1 181931Z 26021KT 18/M01 A2983 RMK A01 T01771009  RH  028%=      5-min Rain = 0
KHO1 181932Z 25026KT 18/M01 A2983 RMK A01 T01781008  RH  028%=      5-min Rain = 0
KHO1 181933Z 25026G34KT 18/M01 A2982 RMK A01 T01761009  RH  028%=      5-min Rain = 0
KHO1 181934Z 25023KT 18/M01 A2982 RMK A01 T01761008  RH  029%=      5-min Rain = 0
KHO1 181935Z 25025G30KT 18/M01 A2982 RMK A01 T01781006  RH  029%=      5-min Rain = 0
KHO1 181936Z 25023G29KT 18/M01 A2982 RMK A01 T01791008  RH  028%=      5-min Rain = 0
KHO1 181937Z 26023KT 18/M01 A2982 RMK A01 T01801007  RH  028%=      5-min Rain = 0
KHO1 181938Z 26024KT 18/M01 A2982 RMK A01 T01811008  RH  028%=      5-min Rain = 0
KHO1 181939Z 26021G26KT 18/M01 A2982 RMK A01 T01801008  RH  028%=      5-min Rain = 0
KHO1 181940Z 25024KT 18/M01 A2982 RMK A01 T01801008  RH  028%=      5-min Rain = 0
KHO1 181941Z 26028G34KT 18/M01 A2982 RMK A01 T01791009  RH  028%=      5-min Rain = 0
KHO1 181942Z 25028G35KT 18/M01 A2982 RMK A01 T01791010  RH  028%=      5-min Rain = 0
KHO1 181943Z 26027KT 18/M01 A2982 RMK A01 T01791010  RH  028%=      5-min Rain = 0
KHO1 181944Z 25023G28KT 18/M01 A2981 RMK A01 T01791009  RH  028%=      5-min Rain = 0
KHO1 181945Z 25024KT 18/M01 A2981 RMK A01 T01801010  RH  028%=      5-min Rain = 0
KHO1 181946Z 26024KT 18/M01 A2981 RMK A01 T01801009  RH  028%=      5-min Rain = 0
KHO1 181947Z 27023KT 18/M01 A2981 RMK A01 T01811008  RH  028%=      5-min Rain = 0
KHO1 181948Z 27023G28KT 18/M01 A2981 RMK A01 T01801009  RH  028%=      5-min Rain = 0
KHO1 181949Z 27022G27KT 18/M01 A2981 RMK A01 T01791011  RH  028%=      5-min Rain = 0
KHO1 181950Z 27023G29KT 18/M01 A2981 RMK A01 T01781010  RH  028%=      5-min Rain = 0
KHO1 181951Z 26021G30KT 18/M01 A2981 RMK A01 T01791007  RH  028%=      5-min Rain = 0
KHO1 181952Z 26021KT 18/M01 A2981 RMK A01 T01821006  RH  028%=      5-min Rain = 0
KHO1 181953Z 25023KT 18/M01 A2981 RMK A01 T01831007  RH  028%=      5-min Rain = 0
KHO1 181954Z 25022KT 18/M01 A298 RMK A01 T01831008  RH  028%=      5-min Rain = 0
KHO1 181955Z 25025KT 18/M01 A298 RMK A01 T01841009  RH  027%=      5-min Rain = 0
KHO1 181956Z 26026G31KT 18/M01 A298 RMK A01 T01821011  RH  027%=      5-min Rain = 0
KHO1 181957Z 26021KT 18/M01 A298 RMK A01 T01791011  RH  027%=      5-min Rain = 0
KHO1 181958Z 27021KT 18/M01 A298 RMK A01 T01791013  RH  027%=      5-min Rain = 0
KHO1 181959Z 28022G27KT 18/M01 A298 RMK A01 T01801011  RH  027%=      5-min Rain = 0
KHO1 182000Z 26022G29KT 18/M01 A298 RMK A01 T01811010  RH  027%=      5-min Rain = 0
KHO1 182001Z 26023G28KT 18/M01 A2979 RMK A01 T01821009  RH  027%=      5-min Rain = 0
KHO1 182002Z 27024G30KT 18/M01 A2979 RMK A01 T01821007  RH  028%=      5-min Rain = 0
KHO1 182003Z 26024G29KT 18/M01 A298 RMK A01 T01831007  RH  028%=      5-min Rain = 0
KHO1 182004Z 26024G30KT 18/M01 A298 RMK A01 T01841011  RH  027%=      5-min Rain = 0
KHO1 182005Z 26025G30KT 19/M01 A298 RMK A01 T01861009  RH  027%=      5-min Rain = 0
KHO1 182006Z 25027KT 19/M01 A298 RMK A01 T01851010  RH  027%=      5-min Rain = 0
KHO1 182007Z 27020G27KT 19/M01 A298 RMK A01 T01851010  RH  027%=      5-min Rain = 0
KHO1 182008Z 28021G26KT 19/M01 A2979 RMK A01 T01871009  RH  027%=      5-min Rain = 0
KHO1 182009Z 27025KT 19/M01 A2979 RMK A01 T01881009  RH  026%=      5-min Rain = 0
KHO1 182010Z 26022KT 19/M01 A2979 RMK A01 T01861012  RH  026%=      5-min Rain = 0
KHO1 182011Z 28019G24KT 19/M01 A2979 RMK A01 T01861010  RH  027%=      5-min Rain = 0
KHO1 182012Z 28022KT 19/M01 A2979 RMK A01 T01851014  RH  026%=      5-min Rain = 0
KHO1 182013Z 27021G26KT 18/M01 A2979 RMK A01 T01821014  RH  026%=      5-min Rain = 0
KHO1 182014Z 26021KT 18/M01 A2979 RMK A01 T01831012  RH  027%=      5-min Rain = 0
KHO1 182015Z 26026G31KT 19/M01 A2979 RMK A01 T01851013  RH  026%=      5-min Rain = 0
KHO1 182016Z 26024KT 19/M01 A2979 RMK A01 T01851013  RH  026%=      5-min Rain = 0
KHO1 182017Z 27022KT 18/M01 A2979 RMK A01 T01811014  RH  027%=      5-min Rain = 0
KHO1 182018Z 26023KT 18/M01 A2979 RMK A01 T01801013  RH  027%=      5-min Rain = 0
KHO1 182019Z 26023KT 18/M01 A2979 RMK A01 T01781013  RH  027%=      5-min Rain = 0
KHO1 182020Z 27023KT 18/M01 A2978 RMK A01 T01761012  RH  028%=      5-min Rain = 0
KHO1 182021Z 25017KT 18/M01 A2978 RMK A01 T01781010  RH  028%=      5-min Rain = 0
KHO1 182022Z 26024G30KT 18/M01 A2978 RMK A01 T01801010  RH  028%=      5-min Rain = 0
KHO1 182023Z 25024KT 18/M01 A2978 RMK A01 T01791010  RH  028%=      5-min Rain = 0
KHO1 182024Z 25024KT 18/M01 A2978 RMK A01 T01811009  RH  028%=      5-min Rain = 0
KHO1 182025Z 26024KT 18/M01 A2978 RMK A01 T01811011  RH  027%=      5-min Rain = 0
KHO1 182026Z 26024KT 18/M01 A2978 RMK A01 T01801011  RH  027%=      5-min Rain = 0
KHO1 182027Z 26024KT 18/M01 A2978 RMK A01 T01791011  RH  028%=      5-min Rain = 0
KHO1 182028Z 26022KT 18/M01 A2978 RMK A01 T01791010  RH  028%=      5-min Rain = 0
KHO1 182029Z 26023G28KT 18/M01 A2978 RMK A01 T01801009  RH  028%=      5-min Rain = 0
KHO1 182030Z 26026KT 18/M01 A2978 RMK A01 T01811009  RH  028%=      5-min Rain = 0
KHO1 182031Z 27027KT 18/M01 A2978 RMK A01 T01811011  RH  027%=      5-min Rain = 0
KHO1 182032Z 27019G24KT 18/M01 A2978 RMK A01 T01811010  RH  027%=      5-min Rain = 0
KHO1 182033Z 27021G27KT 18/M01 A2978 RMK A01 T01841011  RH  027%=      5-min Rain = 0
KHO1 182034Z 28020G25KT 18/M01 A2978 RMK A01 T01831011  RH  027%=      5-min Rain = 0
KHO1 182035Z 28024KT 18/M01 A2979 RMK A01 T01821013  RH  027%=      5-min Rain = 0
KHO1 182036Z 29022KT 18/M01 A2979 RMK A01 T01801011  RH  027%=      5-min Rain = 0
KHO1 182037Z 31027G32KT 18/M00 A298 RMK A01 T01781004  RH  029%=      5-min Rain = 0
KHO1 182038Z 32021KT 17/M00 A298 RMK A01 T01671002  RH  032%=      5-min Rain = 0
KHO1 182039Z 33023G28KT 16/M00 A2979 RMK A01 T01601001  RH  033%=      5-min Rain = 0
KHO1 182040Z 33020G29KT 15/M00 A2979 RMK A01 T01541001  RH  035%=      5-min Rain = 0
KHO1 182041Z 32019KT 15/00 A298 RMK A01 T01510002  RH  036%=      5-min Rain = 0
KHO1 182042Z 32025KT 15/00 A298 RMK A01 T01490002  RH  037%=      5-min Rain = 0
KHO1 182043Z 33024KT 15/00 A298 RMK A01 T01470003  RH  037%=      5-min Rain = 0
KHO1 182044Z 32020KT 15/00 A298 RMK A01 T01460004  RH  038%=      5-min Rain = 0
KHO1 182045Z 32022G27KT 15/00 A298 RMK A01 T01460004  RH  038%=      5-min Rain = 0
KHO1 182046Z 31020G26KT 15/01 A2981 RMK A01 T01460005  RH  038%=      5-min Rain = 0
KHO1 182047Z 32021KT 15/01 A298 RMK A01 T01460005  RH  038%=      5-min Rain = 0
KHO1 182048Z 31023G29KT 15/01 A2981 RMK A01 T01450005  RH  038%=      5-min Rain = 0
KHO1 182049Z 32024G29KT 14/01 A298 RMK A01 T01440005  RH  039%=      5-min Rain = 0
KHO1 182050Z 32023G28KT 14/01 A298 RMK A01 T01430006  RH  039%=      5-min Rain = 0
KHO1 182051Z 32023G29KT 14/01 A298 RMK A01 T01420006  RH  039%=      5-min Rain = 0
KHO1 182052Z 31026G31KT 14/01 A298 RMK A01 T01430006  RH  039%=      5-min Rain = 0
KHO1 182053Z 32024G29KT 14/01 A2981 RMK A01 T01430006  RH  039%=      5-min Rain = 0
KHO1 182054Z 32020G25KT 14/01 A2981 RMK A01 T01430007  RH  039%=      5-min Rain = 0
KHO1 182055Z 32023G30KT 14/01 A2981 RMK A01 T01440006  RH  039%=      5-min Rain = 0
KHO1 182056Z 32021G26KT 14/01 A2981 RMK A01 T01440007  RH  039%=      5-min Rain = 0
KHO1 182057Z 33021KT 14/01 A2981 RMK A01 T01440007  RH  039%=      5-min Rain = 0
KHO1 182058Z 31018G23KT 15/01 A2981 RMK A01 T01450007  RH  039%=      5-min Rain = 0
KHO1 182059Z 32022G27KT 15/01 A2981 RMK A01 T01450006  RH  039%=      5-min Rain = 0
KHO1 182100Z 32016KT 15/01 A2981 RMK A01 T01460007  RH  039%=      5-min Rain = 0
KHO1 182101Z 31018G26KT 15/01 A2981 RMK A01 T01470006  RH  038%=      5-min Rain = 0
KHO1 182102Z 31022G28KT 15/00 A2981 RMK A01 T01470004  RH  038%=      5-min Rain = 0
KHO1 182103Z 31022G29KT 15/01 A2981 RMK A01 T01480005  RH  038%=      5-min Rain = 0
KHO1 182104Z 31023G28KT 15/00 A2981 RMK A01 T01480004  RH  037%=      5-min Rain = 0
KHO1 182105Z 31025KT 15/00 A2981 RMK A01 T01480004  RH  037%=      5-min Rain = 0
KHO1 182106Z 32022G27KT 15/01 A2981 RMK A01 T01480005  RH  038%=      5-min Rain = 0
KHO1 182107Z 32021G26KT 15/01 A2981 RMK A01 T01490007  RH  038%=      5-min Rain = 0
KHO1 182108Z 32019KT 15/01 A2981 RMK A01 T01520007  RH  037%=      5-min Rain = 0
KHO1 182109Z 31018G23KT 15/01 A2981 RMK A01 T01540006  RH  037%=      5-min Rain = 0
KHO1 182110Z 31021G30KT 16/01 A2982 RMK A01 T01570005  RH  036%=      5-min Rain = 0
KHO1 182111Z 31024G30KT 16/00 A2982 RMK A01 T01570002  RH  035%=      5-min Rain = 0
KHO1 182112Z 32023G31KT 16/00 A2981 RMK A01 T01560002  RH  035%=      5-min Rain = 0
KHO1 182113Z 32022G29KT 16/00 A2981 RMK A01 T01560001  RH  035%=      5-min Rain = 0
KHO1 182114Z 32023G29KT 16/00 A2981 RMK A01 T015600-0  RH  034%=      5-min Rain = 0
KHO1 182115Z 31024KT 16/M00 A2981 RMK A01 T01571001  RH  034%=      5-min Rain = 0
KHO1 182116Z 31022G27KT 15/00 A2981 RMK A01 T015400-0  RH  035%=      5-min Rain = 0
KHO1 182117Z 32020G34KT 15/00 A2982 RMK A01 T01540001  RH  035%=      5-min Rain = 0
KHO1 182118Z 31025G34KT 15/M01 A2982 RMK A01 T01531005  RH  034%=      5-min Rain = 0
KHO1 182119Z 31027G33KT 15/M01 A2982 RMK A01 T01511007  RH  034%=      5-min Rain = 0
KHO1 182120Z 32027KT 15/M01 A2981 RMK A01 T01511007  RH  034%=      5-min Rain = 0
KHO1 182121Z 31027G32KT 15/M01 A2982 RMK A01 T01511007  RH  034%=      5-min Rain = 0
KHO1 182122Z 31020KT 15/M01 A2982 RMK A01 T01531005  RH  034%=      5-min Rain = 0
KHO1 182123Z 30030G35KT 16/M01 A2982 RMK A01 T01551007  RH  033%=      5-min Rain = 0
KHO1 182124Z 31027G32KT 15/M01 A2981 RMK A01 T01531007  RH  033%=      5-min Rain = 0
KHO1 182125Z 31027G32KT 15/M01 A2981 RMK A01 T01531009  RH  033%=      5-min Rain = 0
KHO1 182126Z 31028G34KT 15/M01 A2981 RMK A01 T01521012  RH  032%=      5-min Rain = 0
KHO1 182127Z 31027G33KT 15/M01 A2981 RMK A01 T01501014  RH  033%=      5-min Rain = 0
KHO1 182128Z 32026G35KT 15/M01 A2981 RMK A01 T01471014  RH  033%=      5-min Rain = 0
KHO1 182129Z 31030G35KT 15/M02 A2981 RMK A01 T01461016  RH  033%=      5-min Rain = 0
KHO1 182130Z 31027G33KT 15/M02 A2981 RMK A01 T01451017  RH  033%=      5-min Rain = 0
KHO1 182131Z 32030G35KT 15/M02 A2981 RMK A01 T01451018  RH  033%=      5-min Rain = 0
KHO1 182132Z 32027G34KT 15/M02 A2981 RMK A01 T01451019  RH  032%=      5-min Rain = 0
KHO1 182133Z 32029KT 15/M02 A2981 RMK A01 T01451021  RH  032%=      5-min Rain = 0
KHO1 182134Z 32027G35KT 15/M02 A2982 RMK A01 T01451022  RH  032%=      5-min Rain = 0
KHO1 182135Z 31027G32KT 15/M02 A2982 RMK A01 T01461023  RH  031%=      5-min Rain = 0
KHO1 182136Z 32029G37KT 15/M03 A2982 RMK A01 T01451025  RH  031%=      5-min Rain = 0
KHO1 182137Z 32030G37KT 14/M03 A2982 RMK A01 T01431026  RH  031%=      5-min Rain = 0
KHO1 182138Z 32029G34KT 14/M03 A2982 RMK A01 T01421027  RH  031%=      5-min Rain = 0
KHO1 182139Z 32029G36KT 14/M03 A2982 RMK A01 T01411027  RH  031%=      5-min Rain = 0
KHO1 182140Z 32028G37KT 14/M03 A2982 RMK A01 T01421027  RH  031%=      5-min Rain = 0
KHO1 182141Z 32027G32KT 14/M03 A2982 RMK A01 T01421027  RH  031%=      5-min Rain = 0
KHO1 182142Z 32026G33KT 14/M03 A2982 RMK A01 T01411027  RH  031%=      5-min Rain = 0
KHO1 182143Z 32028G33KT 14/M03 A2982 RMK A01 T01391027  RH  031%=      5-min Rain = 0
KHO1 182144Z 32027G33KT 14/M03 A2982 RMK A01 T01391026  RH  032%=      5-min Rain = 0
KHO1 182145Z 31028G33KT 14/M03 A2982 RMK A01 T01391028  RH  031%=      5-min Rain = 0
KHO1 182146Z 31028G33KT 14/M03 A2982 RMK A01 T01381030  RH  031%=      5-min Rain = 0
KHO1 182147Z 31025G30KT 14/M03 A2982 RMK A01 T01361029  RH  032%=      5-min Rain = 0
KHO1 182148Z 31030G36KT 13/M03 A2982 RMK A01 T01341031  RH  032%=      5-min Rain = 0
KHO1 182149Z 31026G31KT 13/M03 A2982 RMK A01 T01321030  RH  032%=      5-min Rain = 0
KHO1 182150Z 31029G35KT 13/M03 A2982 RMK A01 T01311032  RH  032%=      5-min Rain = 0
KHO1 182151Z 31024G31KT 13/M04 A2983 RMK A01 T01301035  RH  032%=      5-min Rain = 0
KHO1 182152Z 31020KT 13/M03 A2983 RMK A01 T01301033  RH  032%=      5-min Rain = 0
KHO1 182153Z 32020G25KT 13/M03 A2983 RMK A01 T01291032  RH  032%=      5-min Rain = 0
KHO1 182154Z 32022G28KT 13/M03 A2983 RMK A01 T01281033  RH  032%=      5-min Rain = 0
KHO1 182155Z 33024G29KT 13/M03 A2983 RMK A01 T01271033  RH  033%=      5-min Rain = 0
KHO1 182156Z 32020G29KT 13/M03 A2983 RMK A01 T01261033  RH  033%=      5-min Rain = 0
KHO1 182157Z 32024G31KT 13/M03 A2983 RMK A01 T01251033  RH  033%=      5-min Rain = 0
KHO1 182158Z 32025G33KT 13/M04 A2983 RMK A01 T01251035  RH  033%=      5-min Rain = 0
KHO1 182159Z 32028G33KT 12/M04 A2983 RMK A01 T01241038  RH  032%=      5-min Rain = 0
KHO1 182200Z 32022G30KT 12/M04 A2983 RMK A01 T01231040  RH  032%=      5-min Rain = 0
KHO1 182201Z 32022G33KT 12/M04 A2983 RMK A01 T01231042  RH  031%=      5-min Rain = 0
KHO1 182202Z 33024G31KT 12/M04 A2982 RMK A01 T01231043  RH  031%=      5-min Rain = 0
KHO1 182203Z 33024G30KT 12/M04 A2982 RMK A01 T01231043  RH  031%=      5-min Rain = 0
KHO1 182204Z 33021KT 12/M04 A2982 RMK A01 T01231042  RH  031%=      5-min Rain = 0
KHO1 182205Z 32023G30KT 12/M04 A2982 RMK A01 T01231043  RH  031%=      5-min Rain = 0
KHO1 182206Z 32020KT 12/M04 A2982 RMK A01 T01231044  RH  031%=      5-min Rain = 0
KHO1 182207Z 31024G29KT 12/M04 A2982 RMK A01 T01241043  RH  031%=      5-min Rain = 0
KHO1 182208Z 32021G27KT 13/M04 A2982 RMK A01 T01251043  RH  031%=      5-min Rain = 0
KHO1 182209Z 31019G25KT 13/M04 A2982 RMK A01 T01251043  RH  031%=      5-min Rain = 0
KHO1 182210Z 32018G25KT 13/M04 A2982 RMK A01 T01261042  RH  031%=      5-min Rain = 0
KHO1 182211Z 31023G28KT 13/M04 A2982 RMK A01 T01261043  RH  030%=      5-min Rain = 0
KHO1 182212Z 31026G31KT 13/M04 A2982 RMK A01 T01251044  RH  030%=      5-min Rain = 0
KHO1 182213Z 31025KT 13/M04 A2982 RMK A01 T01251044  RH  031%=      5-min Rain = 0
KHO1 182214Z 31027KT 13/M04 A2982 RMK A01 T01261043  RH  031%=      5-min Rain = 0
KHO1 182215Z 31024G29KT 13/M04 A2981 RMK A01 T01261043  RH  031%=      5-min Rain = 0
KHO1 182216Z 31026G31KT 13/M04 A2982 RMK A01 T01251042  RH  031%=      5-min Rain = 0
KHO1 182217Z 31021G26KT 13/M04 A2982 RMK A01 T01251041  RH  031%=      5-min Rain = 0
KHO1 182218Z 31021G27KT 13/M04 A2982 RMK A01 T01261041  RH  031%=      5-min Rain = 0
KHO1 182219Z 31022G30KT 13/M04 A2982 RMK A01 T01261041  RH  031%=      5-min Rain = 0
KHO1 182220Z 31025G33KT 13/M04 A2981 RMK A01 T01261042  RH  031%=      5-min Rain = 0
KHO1 182221Z 31019KT 13/M04 A2982 RMK A01 T01271041  RH  031%=      5-min Rain = 0
KHO1 182222Z 31019KT 13/M04 A2981 RMK A01 T01281040  RH  031%=      5-min Rain = 0
KHO1 182223Z 31020G25KT 13/M04 A2981 RMK A01 T01291041  RH  030%=      5-min Rain = 0
KHO1 182224Z 31024G32KT 13/M04 A2981 RMK A01 T01301041  RH  030%=      5-min Rain = 0
KHO1 182225Z 30026KT 13/M04 A2981 RMK A01 T01311042  RH  030%=      5-min Rain = 0
KHO1 182226Z 30029G34KT 13/M04 A2981 RMK A01 T01321043  RH  029%=      5-min Rain = 0
KHO1 182227Z 31027G32KT 13/M04 A2981 RMK A01 T01321042  RH  029%=      5-min Rain = 0
KHO1 182228Z 31026KT 13/M04 A2981 RMK A01 T01321041  RH  030%=      5-min Rain = 0
KHO1 182229Z 31028G33KT 13/M04 A2981 RMK A01 T01321041  RH  030%=      5-min Rain = 0
KHO1 182230Z 31027G33KT 13/M04 A2981 RMK A01 T01321042  RH  030%=      5-min Rain = 0
KHO1 182231Z 30027KT 13/M04 A2981 RMK A01 T01311043  RH  030%=      5-min Rain = 0
KHO1 182232Z 31023G31KT 13/M04 A2981 RMK A01 T01301042  RH  030%=      5-min Rain = 0
KHO1 182233Z 31024G30KT 13/M04 A2981 RMK A01 T01291043  RH  030%=      5-min Rain = 0
KHO1 182234Z 31026G31KT 13/M05 A2981 RMK A01 T01291045  RH  029%=      5-min Rain = 0
KHO1 182235Z 31022G29KT 13/M05 A2981 RMK A01 T01291047  RH  029%=      5-min Rain = 0
KHO1 182236Z 31024KT 13/M05 A2981 RMK A01 T01291047  RH  029%=      5-min Rain = 0
KHO1 182237Z 31022G33KT 13/M05 A2982 RMK A01 T01291047  RH  029%=      5-min Rain = 0
KHO1 182238Z 31023G29KT 13/M05 A2981 RMK A01 T01291049  RH  029%=      5-min Rain = 0
KHO1 182239Z 30025G30KT 13/M05 A2981 RMK A01 T01291051  RH  028%=      5-min Rain = 0
KHO1 182240Z 30021G27KT 13/M05 A2982 RMK A01 T01291051  RH  028%=      5-min Rain = 0
KHO1 182241Z 31021KT 13/M05 A2981 RMK A01 T01291049  RH  029%=      5-min Rain = 0
KHO1 182242Z 31026G32KT 13/M05 A2981 RMK A01 T01291050  RH  028%=      5-min Rain = 0
KHO1 182243Z 31023G29KT 13/M05 A2982 RMK A01 T01291051  RH  028%=      5-min Rain = 0
KHO1 182244Z 31022G27KT 13/M05 A2982 RMK A01 T01291053  RH  028%=      5-min Rain = 0
KHO1 182245Z 31024G30KT 13/M05 A2982 RMK A01 T01301054  RH  027%=      5-min Rain = 0
KHO1 182246Z 30021G26KT 13/M06 A2982 RMK A01 T01291055  RH  027%=      5-min Rain = 0
KHO1 182247Z 30018G23KT 13/M06 A2982 RMK A01 T01291057  RH  027%=      5-min Rain = 0
KHO1 182248Z 30018KT 13/M06 A2981 RMK A01 T01291061  RH  026%=      5-min Rain = 0
KHO1 182249Z 30021G27KT 13/M06 A2981 RMK A01 T01281064  RH  026%=      5-min Rain = 0
KHO1 182250Z 30023G29KT 13/M07 A2981 RMK A01 T01281068  RH  025%=      5-min Rain = 0
KHO1 182251Z 30021KT 13/M07 A2981 RMK A01 T01281068  RH  025%=      5-min Rain = 0
KHO1 182252Z 30021KT 13/M07 A2982 RMK A01 T01271068  RH  025%=      5-min Rain = 0
KHO1 182253Z 30021KT 13/M07 A2982 RMK A01 T01271067  RH  025%=      5-min Rain = 0
KHO1 182254Z 30022KT 13/M07 A2982 RMK A01 T01271067  RH  025%=      5-min Rain = 0
KHO1 182255Z 30019KT 13/M07 A2982 RMK A01 T01271066  RH  026%=      5-min Rain = 0
KHO1 182256Z 30022KT 13/M07 A2982 RMK A01 T01261067  RH  025%=      5-min Rain = 0
KHO1 182257Z 30020G25KT 13/M07 A2982 RMK A01 T01261068  RH  025%=      5-min Rain = 0
KHO1 182258Z 30018G23KT 13/M07 A2983 RMK A01 T01261069  RH  025%=      5-min Rain = 0
KHO1 182259Z 30021G26KT 13/M07 A2983 RMK A01 T01261071  RH  025%=      5-min Rain = 0
KHO1 182300Z 30023KT 13/M07 A2983 RMK A01 T01261073  RH  024%=      5-min Rain = 0
KHO1 182301Z 30021KT 13/M07 A2983 RMK A01 T01261074  RH  024%=      5-min Rain = 0
KHO1 182302Z 29022KT 13/M08 A2983 RMK A01 T01271076  RH  024%=      5-min Rain = 0
KHO1 182303Z 29019G24KT 13/M08 A2984 RMK A01 T01271075  RH  024%=      5-min Rain = 0
KHO1 182304Z 30018G25KT 13/M08 A2984 RMK A01 T01271075  RH  024%=      5-min Rain = 0
KHO1 182305Z 30015G21KT 13/M07 A2984 RMK A01 T01271074  RH  024%=      5-min Rain = 0
KHO1 182306Z 29017KT 13/M07 A2984 RMK A01 T01271074  RH  024%=      5-min Rain = 0
KHO1 182307Z 29017G22KT 13/M08 A2984 RMK A01 T01271075  RH  024%=      5-min Rain = 0
KHO1 182308Z 29017G22KT 13/M07 A2984 RMK A01 T01271071  RH  024%=      5-min Rain = 0
KHO1 182309Z 30020G25KT 13/M06 A2984 RMK A01 T01271064  RH  026%=      5-min Rain = 0
KHO1 182310Z 30022G27KT 13/M07 A2984 RMK A01 T01261068  RH  025%=      5-min Rain = 0
KHO1 182311Z 30022KT 13/M07 A2984 RMK A01 T01271068  RH  025%=      5-min Rain = 0
KHO1 182312Z 30020KT 13/M07 A2984 RMK A01 T01271069  RH  025%=      5-min Rain = 0
KHO1 182313Z 30018KT 13/M07 A2983 RMK A01 T01271071  RH  025%=      5-min Rain = 0
KHO1 182314Z 30017KT 13/M07 A2983 RMK A01 T01271071  RH  024%=      5-min Rain = 0
KHO1 182315Z 30018KT 13/M07 A2983 RMK A01 T01281072  RH  024%=      5-min Rain = 0
KHO1 182316Z 29017KT 13/M07 A2983 RMK A01 T01281072  RH  024%=      5-min Rain = 0
KHO1 182317Z 30017KT 13/M07 A2983 RMK A01 T01281071  RH  024%=      5-min Rain = 0
KHO1 182318Z 30014KT 13/M07 A2983 RMK A01 T01281070  RH  025%=      5-min Rain = 0
KHO1 182319Z 30016G24KT 13/M07 A2983 RMK A01 T01281069  RH  025%=      5-min Rain = 0
KHO1 182320Z 30021KT 13/M07 A2983 RMK A01 T01281070  RH  024%=      5-min Rain = 0
KHO1 182321Z 30019KT 13/M07 A2983 RMK A01 T01291069  RH  025%=      5-min Rain = 0
KHO1 182322Z 30018KT 13/M07 A2983 RMK A01 T01291067  RH  025%=      5-min Rain = 0
KHO1 182323Z 30020G26KT 13/M07 A2983 RMK A01 T01291068  RH  025%=      5-min Rain = 0
KHO1 182324Z 30020KT 13/M07 A2983 RMK A01 T01291069  RH  025%=      5-min Rain = 0
KHO1 182325Z 29021KT 13/M07 A2983 RMK A01 T01291069  RH  025%=      5-min Rain = 0
KHO1 182326Z 29018KT 13/M07 A2983 RMK A01 T01291069  RH  025%=      5-min Rain = 0
KHO1 182327Z 30015KT 13/M07 A2983 RMK A01 T01291067  RH  025%=      5-min Rain = 0
KHO1 182328Z 30019G24KT 13/M07 A2983 RMK A01 T01291067  RH  025%=      5-min Rain = 0
KHO1 182329Z 29016G21KT 13/M07 A2983 RMK A01 T01291065  RH  025%=      5-min Rain = 0
KHO1 182330Z 30018KT 13/M07 A2983 RMK A01 T01291065  RH  025%=      5-min Rain = 0
KHO1 182331Z 29019KT 13/M07 A2983 RMK A01 T01291066  RH  025%=      5-min Rain = 0
KHO1 182332Z 30014G19KT 13/M06 A2983 RMK A01 T01301064  RH  025%=      5-min Rain = 0
KHO1 182333Z 30019G25KT 13/M07 A2983 RMK A01 T01301067  RH  025%=      5-min Rain = 0
KHO1 182334Z 30020G25KT 13/M07 A2983 RMK A01 T01301068  RH  025%=      5-min Rain = 0
KHO1 182335Z 30019G25KT 13/M07 A2983 RMK A01 T01301068  RH  025%=      5-min Rain = 0
KHO1 182336Z 30017KT 13/M07 A2983 RMK A01 T01301068  RH  025%=      5-min Rain = 0
KHO1 182337Z 30018G24KT 13/M07 A2983 RMK A01 T01301068  RH  025%=      5-min Rain = 0
KHO1 182338Z 30022G28KT 13/M07 A2983 RMK A01 T01291067  RH  025%=      5-min Rain = 0
KHO1 182339Z 30019G24KT 13/M07 A2983 RMK A01 T01291066  RH  025%=      5-min Rain = 0
KHO1 182340Z 30020G26KT 13/M07 A2984 RMK A01 T01291066  RH  025%=      5-min Rain = 0
KHO1 182341Z 30024KT 13/M07 A2984 RMK A01 T01301067  RH  025%=      5-min Rain = 0
KHO1 182342Z 30024KT 13/M07 A2983 RMK A01 T01301067  RH  025%=      5-min Rain = 0
KHO1 182343Z 30020KT 13/M07 A2984 RMK A01 T01301066  RH  025%=      5-min Rain = 0
KHO1 182344Z 30020G29KT 13/M06 A2984 RMK A01 T01301064  RH  025%=      5-min Rain = 0
KHO1 182345Z 30018KT 13/M06 A2984 RMK A01 T01291063  RH  026%=      5-min Rain = 0
KHO1 182346Z 30021G26KT 13/M06 A2984 RMK A01 T01291064  RH  025%=      5-min Rain = 0
KHO1 182347Z 31020KT 13/M06 A2984 RMK A01 T01281064  RH  026%=      5-min Rain = 0
KHO1 182348Z 30020G26KT 13/M07 A2984 RMK A01 T01281065  RH  025%=      5-min Rain = 0
KHO1 182349Z 31022KT 13/M07 A2984 RMK A01 T01281068  RH  025%=      5-min Rain = 0
KHO1 182350Z 31018G24KT 13/M07 A2984 RMK A01 T01281068  RH  025%=      5-min Rain = 0
KHO1 182351Z 30018KT 13/M07 A2984 RMK A01 T01271070  RH  025%=      5-min Rain = 0
KHO1 182352Z 31018KT 13/M07 A2984 RMK A01 T01271071  RH  025%=      5-min Rain = 0
KHO1 182353Z 30016KT 13/M07 A2984 RMK A01 T01271071  RH  025%=      5-min Rain = 0
KHO1 182354Z 31014KT 13/M07 A2984 RMK A01 T01261071  RH  025%=      5-min Rain = 0
KHO1 182355Z 31020G25KT 13/M08 A2984 RMK A01 T01261077  RH  024%=      5-min Rain = 0
KHO1 182356Z 31021G26KT 13/M08 A2984 RMK A01 T01271082  RH  023%=      5-min Rain = 0
KHO1 182357Z 31020KT 13/M08 A2984 RMK A01 T01281083  RH  022%=      5-min Rain = 0
KHO1 182358Z 31022G30KT 13/M09 A2984 RMK A01 T01281086  RH  022%=      5-min Rain = 0
KHO1 182359Z 31020G25KT 13/M09 A2984 RMK A01 T01281088  RH  021%=      5-min Rain = 0
KHO1 190000Z 30025G32KT 13/M09 A2984 RMK A01 T01281090  RH  021%=      5-min Rain = 0
KHO1 190001Z 30026G33KT 13/M09 A2984 RMK A01 T01291093  RH  020%=      5-min Rain = 0
KHO1 190002Z 31027G32KT 13/M09 A2984 RMK A01 T01291092  RH  021%=      5-min Rain = 0
KHO1 190003Z 31024G31KT 13/M09 A2984 RMK A01 T01291091  RH  021%=      5-min Rain = 0
KHO1 190004Z 31022G27KT 13/M09 A2984 RMK A01 T01281090  RH  021%=      5-min Rain = 0
KHO1 190005Z 30023G29KT 13/M09 A2985 RMK A01 T01271090  RH  021%=      5-min Rain = 0
KHO1 190006Z 31026G31KT 13/M09 A2984 RMK A01 T01271090  RH  021%=      5-min Rain = 0
KHO1 190007Z 30022G27KT 13/M09 A2984 RMK A01 T01271089  RH  021%=      5-min Rain = 0
KHO1 190008Z 31023KT 13/M09 A2984 RMK A01 T01261088  RH  022%=      5-min Rain = 0
KHO1 190009Z 31024G33KT 13/M09 A2984 RMK A01 T01261088  RH  022%=      5-min Rain = 0
KHO1 190010Z 31019KT 13/M09 A2984 RMK A01 T01251087  RH  022%=      5-min Rain = 0
KHO1 190011Z 31023G30KT 13/M09 A2985 RMK A01 T01251088  RH  022%=      5-min Rain = 0
KHO1 190012Z 31022G28KT 13/M09 A2985 RMK A01 T01251087  RH  022%=      5-min Rain = 0
KHO1 190013Z 31024G31KT 13/M09 A2985 RMK A01 T01251088  RH  022%=      5-min Rain = 0
KHO1 190014Z 31022G28KT 13/M09 A2985 RMK A01 T01251088  RH  022%=      5-min Rain = 0
KHO1 190015Z 30019G27KT 12/M09 A2985 RMK A01 T01241087  RH  022%=      5-min Rain = 0
KHO1 190016Z 30021KT 12/M09 A2985 RMK A01 T01241087  RH  022%=      5-min Rain = 0
KHO1 190017Z 30022KT 12/M09 A2985 RMK A01 T01241086  RH  022%=      5-min Rain = 0
KHO1 190018Z 29021G26KT 12/M09 A2985 RMK A01 T01241086  RH  022%=      5-min Rain = 0
KHO1 190019Z 29021G26KT 12/M09 A2985 RMK A01 T01231085  RH  023%=      5-min Rain = 0
KHO1 190020Z 29025KT 12/M08 A2985 RMK A01 T01231084  RH  023%=      5-min Rain = 0
KHO1 190021Z 29022KT 12/M08 A2985 RMK A01 T01231083  RH  023%=      5-min Rain = 0
KHO1 190022Z 30023G28KT 12/M08 A2985 RMK A01 T01231083  RH  023%=      5-min Rain = 0
KHO1 190023Z 30023KT 12/M08 A2985 RMK A01 T01231082  RH  023%=      5-min Rain = 0
KHO1 190024Z 30022G28KT 12/M08 A2985 RMK A01 T01221082  RH  023%=      5-min Rain = 0
KHO1 190025Z 30022G30KT 12/M08 A2986 RMK A01 T01211082  RH  023%=      5-min Rain = 0
KHO1 190026Z 30019G26KT 12/M08 A2986 RMK A01 T01201080  RH  024%=      5-min Rain = 0
KHO1 190027Z 30021G29KT 12/M08 A2985 RMK A01 T01191080  RH  024%=      5-min Rain = 0
KHO1 190028Z 30021G26KT 12/M08 A2985 RMK A01 T01191080  RH  024%=      5-min Rain = 0
KHO1 190029Z 30018KT 12/M08 A2985 RMK A01 T01191079  RH  024%=      5-min Rain = 0
KHO1 190030Z 30020KT 12/M08 A2985 RMK A01 T01181078  RH  025%=      5-min Rain = 0
KHO1 190031Z 30023G29KT 12/M08 A2985 RMK A01 T01181077  RH  025%=      5-min Rain = 0
KHO1 190032Z 30021G28KT 12/M08 A2985 RMK A01 T01181076  RH  025%=      5-min Rain = 0
KHO1 190033Z 30021G26KT 12/M08 A2985 RMK A01 T01171075  RH  025%=      5-min Rain = 0
KHO1 190034Z 30021G26KT 12/M08 A2985 RMK A01 T01171075  RH  025%=      5-min Rain = 0
KHO1 190035Z 30024KT 12/M07 A2985 RMK A01 T01171073  RH  026%=      5-min Rain = 0
KHO1 190036Z 30019G26KT 12/M07 A2985 RMK A01 T01171072  RH  026%=      5-min Rain = 0
KHO1 190037Z 30019G25KT 12/M07 A2985 RMK A01 T01161072  RH  026%=      5-min Rain = 0
KHO1 190038Z 30023KT 12/M07 A2985 RMK A01 T01151070  RH  027%=      5-min Rain = 0
KHO1 190039Z 30020G25KT 12/M07 A2986 RMK A01 T01161069  RH  027%=      5-min Rain = 0
KHO1 190040Z 30023G28KT 12/M07 A2986 RMK A01 T01151068  RH  027%=      5-min Rain = 0
KHO1 190041Z 30017KT 12/M07 A2986 RMK A01 T01151067  RH  027%=      5-min Rain = 0
KHO1 190042Z 30020KT 11/M07 A2986 RMK A01 T01141067  RH  028%=      5-min Rain = 0
KHO1 190043Z 30020KT 11/M07 A2986 RMK A01 T01141066  RH  028%=      5-min Rain = 0
KHO1 190044Z 30021KT 11/M07 A2986 RMK A01 T01141065  RH  028%=      5-min Rain = 0
KHO1 190045Z 30017KT 11/M07 A2987 RMK A01 T01131065  RH  028%=      5-min Rain = 0
KHO1 190046Z 30020KT 11/M06 A2987 RMK A01 T01131064  RH  028%=      5-min Rain = 0
KHO1 190047Z 30022G30KT 11/M06 A2987 RMK A01 T01121063  RH  029%=      5-min Rain = 0
KHO1 190048Z 30023G28KT 11/M06 A2987 RMK A01 T01131063  RH  029%=      5-min Rain = 0
KHO1 190049Z 30023G29KT 11/M06 A2987 RMK A01 T01131062  RH  029%=      5-min Rain = 0
KHO1 190050Z 30020KT 11/M06 A2987 RMK A01 T01131062  RH  029%=      5-min Rain = 0
KHO1 190051Z 29022KT 11/M06 A2987 RMK A01 T01131062  RH  029%=      5-min Rain = 0
KHO1 190052Z 30025KT 11/M06 A2987 RMK A01 T01131061  RH  029%=      5-min Rain = 0
KHO1 190053Z 30021KT 11/M06 A2988 RMK A01 T01131061  RH  029%=      5-min Rain = 0
KHO1 190054Z 29021G27KT 11/M06 A2988 RMK A01 T01131061  RH  029%=      5-min Rain = 0
KHO1 190055Z 30020G25KT 11/M06 A2988 RMK A01 T01131061  RH  029%=      5-min Rain = 0
KHO1 190056Z 29016KT 11/M06 A2988 RMK A01 T01121061  RH  029%=      5-min Rain = 0
KHO1 190057Z 29021G27KT 11/M06 A2988 RMK A01 T01121061  RH  029%=      5-min Rain = 0
KHO1 190058Z 29019G24KT 11/M06 A2988 RMK A01 T01121060  RH  029%=      5-min Rain = 0
KHO1 190059Z 29019KT 11/M06 A2988 RMK A01 T01121060  RH  029%=      5-min Rain = 0
KHO1 190100Z 29020G25KT 11/M06 A2988 RMK A01 T01111060  RH  030%=      5-min Rain = 0
KHO1 190101Z 29017G22KT 11/M06 A2988 RMK A01 T01111060  RH  030%=      5-min Rain = 0
KHO1 190102Z 29015G20KT 11/M06 A2988 RMK A01 T01101060  RH  030%=      5-min Rain = 0
KHO1 190103Z 29018KT 11/M06 A2988 RMK A01 T01091060  RH  030%=      5-min Rain = 0
KHO1 190104Z 29016KT 11/M06 A2989 RMK A01 T01091059  RH  030%=      5-min Rain = 0
KHO1 190105Z 30017G22KT 11/M06 A2989 RMK A01 T01091059  RH  030%=      5-min Rain = 0
KHO1 190106Z 29017KT 11/M06 A2989 RMK A01 T01091059  RH  030%=      5-min Rain = 0
KHO1 190107Z 30017G22KT 11/M06 A2989 RMK A01 T01081059  RH  030%=      5-min Rain = 0
KHO1 190108Z 30017G23KT 11/M06 A2989 RMK A01 T01081058  RH  031%=      5-min Rain = 0
KHO1 190109Z 29020KT 11/M06 A2989 RMK A01 T01081058  RH  031%=      5-min Rain = 0
KHO1 190110Z 30019KT 11/M06 A2989 RMK A01 T01091058  RH  031%=      5-min Rain = 0
KHO1 190111Z 29020KT 11/M06 A2989 RMK A01 T01091058  RH  031%=      5-min Rain = 0
KHO1 190112Z 30020KT 11/M06 A2989 RMK A01 T01091058  RH  031%=      5-min Rain = 0
KHO1 190113Z 29018KT 11/M06 A2989 RMK A01 T01091058  RH  031%=      5-min Rain = 0
KHO1 190114Z 29018KT 11/M06 A2989 RMK A01 T01081057  RH  031%=      5-min Rain = 0
KHO1 190115Z 30017KT 11/M06 A2989 RMK A01 T01081058  RH  031%=      5-min Rain = 0
KHO1 190116Z 29016KT 11/M06 A2989 RMK A01 T01071057  RH  031%=      5-min Rain = 0
KHO1 190117Z 30017KT 11/M06 A2989 RMK A01 T01071057  RH  031%=      5-min Rain = 0
KHO1 190118Z 30016KT 11/M06 A2989 RMK A01 T01061057  RH  031%=      5-min Rain = 0
KHO1 190119Z 30016KT 11/M06 A2989 RMK A01 T01061057  RH  031%=      5-min Rain = 0
KHO1 190120Z 30017G22KT 11/M06 A2989 RMK A01 T01061057  RH  031%=      5-min Rain = 0
KHO1 190121Z 30018KT 11/M06 A2989 RMK A01 T01061057  RH  031%=      5-min Rain = 0
KHO1 190122Z 30016G21KT 11/M06 A2989 RMK A01 T01061057  RH  031%=      5-min Rain = 0
KHO1 190123Z 30019G25KT 11/M06 A299 RMK A01 T01061057  RH  031%=      5-min Rain = 0
KHO1 190124Z 30018G23KT 11/M06 A299 RMK A01 T01061058  RH  031%=      5-min Rain = 0
KHO1 190125Z 30016G22KT 11/M06 A299 RMK A01 T01051057  RH  031%=      5-min Rain = 0
KHO1 190126Z 30018KT 11/M06 A299 RMK A01 T01051058  RH  031%=      5-min Rain = 0
KHO1 190127Z 30016KT 11/M06 A299 RMK A01 T01051058  RH  031%=      5-min Rain = 0
KHO1 190128Z 30019G24KT 10/M06 A299 RMK A01 T01041058  RH  031%=      5-min Rain = 0
KHO1 190129Z 30019KT 11/M06 A299 RMK A01 T01051059  RH  031%=      5-min Rain = 0
KHO1 190130Z 31016KT 11/M06 A299 RMK A01 T01051059  RH  031%=      5-min Rain = 0
KHO1 190131Z 31018KT 10/M06 A299 RMK A01 T01041059  RH  031%=      5-min Rain = 0
KHO1 190132Z 31016G22KT 10/M06 A299 RMK A01 T01041059  RH  031%=      5-min Rain = 0
KHO1 190133Z 31017KT 10/M06 A299 RMK A01 T01031060  RH  031%=      5-min Rain = 0
KHO1 190134Z 31018KT 10/M06 A299 RMK A01 T01041062  RH  031%=      5-min Rain = 0
KHO1 190135Z 31018KT 10/M06 A299 RMK A01 T01041064  RH  030%=      5-min Rain = 0
KHO1 190136Z 31023G28KT 11/M07 A299 RMK A01 T01051067  RH  029%=      5-min Rain = 0
KHO1 190137Z 31021KT 11/M07 A299 RMK A01 T01061068  RH  029%=      5-min Rain = 0
KHO1 190138Z 31024G30KT 11/M07 A299 RMK A01 T01071069  RH  028%=      5-min Rain = 0
KHO1 190139Z 31024G30KT 11/M07 A299 RMK A01 T01081070  RH  028%=      5-min Rain = 0
KHO1 190140Z 31026G33KT 11/M07 A299 RMK A01 T01091072  RH  027%=      5-min Rain = 0
KHO1 190141Z 31021G31KT 11/M07 A2991 RMK A01 T01091072  RH  027%=      5-min Rain = 0
KHO1 190142Z 31024G30KT 11/M07 A2991 RMK A01 T01091073  RH  027%=      5-min Rain = 0
KHO1 190143Z 31022G30KT 11/M07 A2991 RMK A01 T01091073  RH  027%=      5-min Rain = 0
KHO1 190144Z 31023G31KT 11/M07 A2991 RMK A01 T01081073  RH  027%=      5-min Rain = 0
KHO1 190145Z 32019G25KT 11/M07 A2991 RMK A01 T01071073  RH  028%=      5-min Rain = 0
KHO1 190146Z 31022G27KT 11/M07 A2991 RMK A01 T01061074  RH  027%=      5-min Rain = 0
KHO1 190147Z 31022G28KT 11/M07 A2991 RMK A01 T01071074  RH  027%=      5-min Rain = 0
KHO1 190148Z 31026G32KT 11/M08 A2991 RMK A01 T01071075  RH  027%=      5-min Rain = 0
KHO1 190149Z 31019G24KT 11/M08 A2991 RMK A01 T01071075  RH  027%=      5-min Rain = 0
KHO1 190150Z 31020KT 11/M08 A2992 RMK A01 T01061075  RH  027%=      5-min Rain = 0
KHO1 190151Z 31020G27KT 11/M08 A2992 RMK A01 T01051075  RH  027%=      5-min Rain = 0
KHO1 190152Z 31023G30KT 11/M08 A2992 RMK A01 T01051076  RH  027%=      5-min Rain = 0
KHO1 190153Z 31023G30KT 11/M08 A2992 RMK A01 T01061076  RH  027%=      5-min Rain = 0
KHO1 190154Z 31023G28KT 11/M08 A2992 RMK A01 T01061076  RH  027%=      5-min Rain = 0
KHO1 190155Z 31022KT 11/M08 A2992 RMK A01 T01061076  RH  027%=      5-min Rain = 0
KHO1 190156Z 31021G26KT 11/M08 A2992 RMK A01 T01061076  RH  027%=      5-min Rain = 0
KHO1 190157Z 31024G30KT 11/M08 A2992 RMK A01 T01061076  RH  027%=      5-min Rain = 0
KHO1 190158Z 31025KT 11/M08 A2992 RMK A01 T01061076  RH  027%=      5-min Rain = 0
KHO1 190159Z 31019KT 11/M08 A2992 RMK A01 T01061075  RH  027%=      5-min Rain = 0
KHO1 190200Z 31025KT 11/M08 A2992 RMK A01 T01051076  RH  027%=      5-min Rain = 0
KHO1 190201Z 31021G26KT 11/M08 A2993 RMK A01 T01061075  RH  027%=      5-min Rain = 0
KHO1 190202Z 31024G30KT 11/M08 A2993 RMK A01 T01051075  RH  027%=      5-min Rain = 0
KHO1 190203Z 31022G27KT 11/M08 A2993 RMK A01 T01051075  RH  027%=      5-min Rain = 0
KHO1 190204Z 31018KT 10/M08 A2993 RMK A01 T01041075  RH  028%=      5-min Rain = 0
KHO1 190205Z 31019G24KT 10/M08 A2993 RMK A01 T01041075  RH  028%=      5-min Rain = 0
KHO1 190206Z 31020G26KT 10/M08 A2993 RMK A01 T01031075  RH  028%=      5-min Rain = 0
KHO1 190207Z 31022KT 10/M08 A2993 RMK A01 T01041075  RH  028%=      5-min Rain = 0
KHO1 190208Z 31020KT 10/M07 A2993 RMK A01 T01041074  RH  028%=      5-min Rain = 0
KHO1 190209Z 30018KT 10/M07 A2994 RMK A01 T01031074  RH  028%=      5-min Rain = 0
KHO1 190210Z 31019G24KT 10/M07 A2994 RMK A01 T01021074  RH  028%=      5-min Rain = 0
KHO1 190211Z 30020G25KT 10/M07 A2994 RMK A01 T01031074  RH  028%=      5-min Rain = 0
KHO1 190212Z 31016KT 10/M07 A2994 RMK A01 T01021073  RH  028%=      5-min Rain = 0
KHO1 190213Z 31019G25KT 10/M07 A2994 RMK A01 T01021073  RH  028%=      5-min Rain = 0
KHO1 190214Z 31020KT 10/M07 A2994 RMK A01 T01021073  RH  028%=      5-min Rain = 0
KHO1 190215Z 31020G26KT 10/M07 A2994 RMK A01 T01021073  RH  029%=      5-min Rain = 0
KHO1 190216Z 31017G22KT 10/M07 A2994 RMK A01 T01011073  RH  029%=      5-min Rain = 0
KHO1 190217Z 31019KT 10/M07 A2994 RMK A01 T01011073  RH  029%=      5-min Rain = 0
KHO1 190218Z 31017G24KT 10/M07 A2994 RMK A01 T01011073  RH  029%=      5-min Rain = 0
KHO1 190219Z 31018KT 10/M07 A2995 RMK A01 T01001073  RH  029%=      5-min Rain = 0
KHO1 190220Z 31016G21KT 10/M07 A2995 RMK A01 T01001072  RH  029%=      5-min Rain = 0
KHO1 190221Z 31016KT 10/M07 A2995 RMK A01 T00991072  RH  029%=      5-min Rain = 0
KHO1 190222Z 31018KT 10/M07 A2995 RMK A01 T00991072  RH  029%=      5-min Rain = 0
KHO1 190223Z 31017G22KT 10/M07 A2995 RMK A01 T00981072  RH  029%=      5-min Rain = 0
KHO1 190224Z 31015G21KT 10/M07 A2995 RMK A01 T00981072  RH  029%=      5-min Rain = 0
KHO1 190225Z 31017KT 10/M07 A2995 RMK A01 T00981072  RH  029%=      5-min Rain = 0
KHO1 190226Z 31015KT 10/M07 A2995 RMK A01 T00981072  RH  030%=      5-min Rain = 0
KHO1 190227Z 31018KT 10/M07 A2995 RMK A01 T00981072  RH  030%=      5-min Rain = 0
KHO1 190228Z 31017KT 10/M07 A2995 RMK A01 T00971072  RH  030%=      5-min Rain = 0
KHO1 190229Z 31018G23KT 10/M07 A2995 RMK A01 T00971072  RH  030%=      5-min Rain = 0
KHO1 190230Z 31016G21KT 10/M07 A2996 RMK A01 T00971072  RH  030%=      5-min Rain = 0
KHO1 190231Z 31016KT 10/M07 A2996 RMK A01 T00961072  RH  030%=      5-min Rain = 0
KHO1 190232Z 31015KT 10/M07 A2996 RMK A01 T00951072  RH  030%=      5-min Rain = 0
KHO1 190233Z 31014G19KT 10/M07 A2996 RMK A01 T00951072  RH  030%=      5-min Rain = 0
KHO1 190234Z 31016KT 10/M07 A2996 RMK A01 T00951072  RH  030%=      5-min Rain = 0
KHO1 190235Z 31016KT 10/M07 A2996 RMK A01 T00951072  RH  030%=      5-min Rain = 0
KHO1 190236Z 31017KT 09/M07 A2996 RMK A01 T00941072  RH  030%=      5-min Rain = 0
KHO1 190237Z 31016KT 10/M07 A2996 RMK A01 T00951072  RH  030%=      5-min Rain = 0
KHO1 190238Z 31017KT 10/M07 A2997 RMK A01 T00951072  RH  030%=      5-min Rain = 0
KHO1 190239Z 31016G22KT 09/M07 A2997 RMK A01 T00941073  RH  030%=      5-min Rain = 0
KHO1 190240Z 31016G22KT 09/M07 A2997 RMK A01 T00941073  RH  030%=      5-min Rain = 0
KHO1 190241Z 32017KT 09/M07 A2997 RMK A01 T00941073  RH  030%=      5-min Rain = 0
KHO1 190242Z 31018G25KT 09/M07 A2997 RMK A01 T00941074  RH  030%=      5-min Rain = 0
KHO1 190243Z 32020KT 10/M08 A2997 RMK A01 T00951075  RH  030%=      5-min Rain = 0
KHO1 190244Z 32018G23KT 10/M08 A2997 RMK A01 T00951075  RH  029%=      5-min Rain = 0
KHO1 190245Z 32019G24KT 10/M08 A2997 RMK A01 T00951075  RH  029%=      5-min Rain = 0
KHO1 190246Z 31021G29KT 10/M08 A2997 RMK A01 T00951077  RH  029%=      5-min Rain = 0
KHO1 190247Z 32020G26KT 10/M08 A2997 RMK A01 T00961079  RH  028%=      5-min Rain = 0
KHO1 190248Z 31022G28KT 10/M08 A2997 RMK A01 T00971080  RH  028%=      5-min Rain = 0
KHO1 190249Z 32022KT 10/M08 A2997 RMK A01 T00971080  RH  028%=      5-min Rain = 0
KHO1 190250Z 31020G27KT 10/M08 A2998 RMK A01 T00971079  RH  028%=      5-min Rain = 0
KHO1 190251Z 32024G31KT 10/M08 A2997 RMK A01 T00971083  RH  027%=      5-min Rain = 0
KHO1 190252Z 32024G33KT 10/M08 A2998 RMK A01 T00991083  RH  027%=      5-min Rain = 0
KHO1 190253Z 31023G30KT 10/M08 A2998 RMK A01 T00991084  RH  027%=      5-min Rain = 0
KHO1 190254Z 32024G37KT 10/M08 A2998 RMK A01 T00991084  RH  027%=      5-min Rain = 0
KHO1 190255Z 34025G34KT 10/M08 A2999 RMK A01 T00991081  RH  027%=      5-min Rain = 0
KHO1 190256Z 34025KT 10/M05 A2999 RMK A01 T00971047  RH  036%=      5-min Rain = 0
KHO1 190257Z 34024G29KT 09/M02 A2999 RMK A01 T00921024  RH  044%=      5-min Rain = 0
KHO1 190258Z 35020G25KT 09/M02 A30 RMK A01 T00891020  RH  047%=      5-min Rain = 0
KHO1 190259Z 35018G24KT 09/M02 A30 RMK A01 T00861016  RH  049%=      5-min Rain = 0
KHO1 190300Z 35022G27KT 08/M01 A30 RMK A01 T00841013  RH  050%=      5-min Rain = 0
KHO1 190301Z 34025KT 08/M01 A30 RMK A01 T00841010  RH  052%=      5-min Rain = 0
KHO1 190302Z 34019KT 08/M01 A30 RMK A01 T00831009  RH  052%=      5-min Rain = 0
KHO1 190303Z 34022G27KT 08/M01 A3001 RMK A01 T00821009  RH  053%=      5-min Rain = 0
KHO1 190304Z 34018KT 08/M01 A3001 RMK A01 T00811008  RH  053%=      5-min Rain = 0
KHO1 190305Z 34025KT 08/M01 A30 RMK A01 T00801008  RH  054%=      5-min Rain = 0
KHO1 190306Z 34024G29KT 08/M01 A30 RMK A01 T00801007  RH  054%=      5-min Rain = 0
KHO1 190307Z 34020G25KT 08/M01 A3001 RMK A01 T00801007  RH  054%=      5-min Rain = 0
KHO1 190308Z 34022G31KT 08/M01 A3001 RMK A01 T00791007  RH  054%=      5-min Rain = 0
KHO1 190309Z 34024KT 08/M01 A3001 RMK A01 T00791007  RH  054%=      5-min Rain = 0
KHO1 190310Z 33020G25KT 08/M01 A3001 RMK A01 T00791008  RH  054%=      5-min Rain = 0
KHO1 190311Z 34018G23KT 08/M01 A3002 RMK A01 T00781008  RH  054%=      5-min Rain = 0
KHO1 190312Z 34021G29KT 08/M01 A3001 RMK A01 T00771008  RH  055%=      5-min Rain = 0
KHO1 190313Z 34027G35KT 08/M01 A3001 RMK A01 T00771007  RH  055%=      5-min Rain = 0
KHO1 190314Z 34026G33KT 08/M01 A3001 RMK A01 T00771007  RH  055%=      5-min Rain = 0
KHO1 190315Z 34027G32KT 08/M01 A3001 RMK A01 T00761006  RH  056%=      5-min Rain = 0
KHO1 190316Z 34027G32KT 08/M01 A3001 RMK A01 T00761005  RH  056%=      5-min Rain = 0
KHO1 190317Z 33025G31KT 08/M01 A3002 RMK A01 T00751005  RH  057%=      5-min Rain = 0
KHO1 190318Z 34026G31KT 08/M00 A3002 RMK A01 T00751004  RH  057%=      5-min Rain = 0
KHO1 190319Z 34026G33KT 07/M00 A3002 RMK A01 T00741004  RH  058%=      5-min Rain = 0
KHO1 190320Z 34027G32KT 07/M00 A3002 RMK A01 T00741003  RH  058%=      5-min Rain = 0
KHO1 190321Z 34030G35KT 07/M00 A3001 RMK A01 T00731002  RH  059%=      5-min Rain = 0
KHO1 190322Z 35024KT 07/M00 A3002 RMK A01 T00731002  RH  059%=      5-min Rain = 0
KHO1 190323Z 34023G31KT 07/M00 A3002 RMK A01 T00721002  RH  059%=      5-min Rain = 0
KHO1 190324Z 35022KT 07/M00 A3003 RMK A01 T00721001  RH  060%=      5-min Rain = 0
KHO1 190325Z 35021G28KT 07/M00 A3003 RMK A01 T00711001  RH  060%=      5-min Rain = 0
KHO1 190326Z 34022KT 07/00 A3003 RMK A01 T007100-0  RH  060%=      5-min Rain = 0
KHO1 190327Z 35024KT 07/00 A3003 RMK A01 T00710000  RH  061%=      5-min Rain = 0
KHO1 190328Z 34022KT 07/00 A3003 RMK A01 T00710000  RH  061%=      5-min Rain = 0
KHO1 190329Z 34020G25KT 07/00 A3003 RMK A01 T00710001  RH  061%=      5-min Rain = 0
KHO1 190330Z 35021G29KT 07/00 A3003 RMK A01 T00710001  RH  061%=      5-min Rain = 0
KHO1 190331Z 35023G30KT 07/00 A3003 RMK A01 T00710000  RH  061%=      5-min Rain = 0
KHO1 190332Z 35021G28KT 07/00 A3003 RMK A01 T00700000  RH  061%=      5-min Rain = 0
KHO1 190333Z 34022G29KT 07/00 A3003 RMK A01 T007000-0  RH  061%=      5-min Rain = 0
KHO1 190334Z 35025G31KT 07/00 A3003 RMK A01 T00690000  RH  061%=      5-min Rain = 0
KHO1 190335Z 36024G29KT 07/00 A3003 RMK A01 T00690000  RH  062%=      5-min Rain = 0
KHO1 190336Z 35024G29KT 07/00 A3003 RMK A01 T00680000  RH  062%=      5-min Rain = 0
KHO1 190337Z 35024G29KT 07/00 A3003 RMK A01 T00680001  RH  062%=      5-min Rain = 0
KHO1 190338Z 35021G27KT 07/00 A3003 RMK A01 T00680001  RH  062%=      5-min Rain = 0
KHO1 190339Z 35022G30KT 07/00 A3003 RMK A01 T00670001  RH  063%=      5-min Rain = 0
KHO1 190340Z 35019G25KT 07/00 A3004 RMK A01 T00660001  RH  063%=      5-min Rain = 0
KHO1 190341Z 34022KT 07/00 A3004 RMK A01 T00650002  RH  064%=      5-min Rain = 0
KHO1 190342Z 36020KT 07/00 A3003 RMK A01 T00650002  RH  064%=      5-min Rain = 0
KHO1 190343Z 35019G29KT 07/00 A3004 RMK A01 T00650003  RH  065%=      5-min Rain = 0
KHO1 190344Z 35029G34KT 06/00 A3003 RMK A01 T00640004  RH  065%=      5-min Rain = 0
KHO1 190345Z 35022G28KT 06/00 A3003 RMK A01 T00640004  RH  065%=      5-min Rain = 0
KHO1 190346Z 35024G30KT 06/00 A3003 RMK A01 T00640004  RH  066%=      5-min Rain = 0
KHO1 190347Z 36026G32KT 06/01 A3003 RMK A01 T00630005  RH  066%=      5-min Rain = 0
KHO1 190348Z 35025G32KT 06/01 A3004 RMK A01 T00630005  RH  066%=      5-min Rain = 0
KHO1 190349Z 36024G29KT 06/01 A3004 RMK A01 T00630005  RH  067%=      5-min Rain = 0
KHO1 190350Z 35022G28KT 06/01 A3004 RMK A01 T00620006  RH  067%=      5-min Rain = 0
KHO1 190351Z 35023G31KT 06/01 A3004 RMK A01 T00620006  RH  067%=      5-min Rain = 0
KHO1 190352Z 35021G27KT 06/01 A3004 RMK A01 T00610006  RH  068%=      5-min Rain = 0
KHO1 190353Z 35017G23KT 06/01 A3004 RMK A01 T00610006  RH  068%=      5-min Rain = 0
KHO1 190354Z 35020G25KT 06/01 A3004 RMK A01 T00600006  RH  068%=      5-min Rain = 0
KHO1 190355Z 35023G31KT 06/01 A3004 RMK A01 T00600007  RH  069%=      5-min Rain = 0
KHO1 190356Z 36021KT 06/01 A3004 RMK A01 T00600006  RH  068%=      5-min Rain = 0
KHO1 190357Z 36025KT 06/01 A3004 RMK A01 T00600006  RH  068%=      5-min Rain = 0
KHO1 190358Z 36020G28KT 06/01 A3004 RMK A01 T00600006  RH  068%=      5-min Rain = 0
KHO1 190359Z 36019KT 06/01 A3004 RMK A01 T00600006  RH  068%=      5-min Rain = 0
KHO1 190400Z 36020G25KT 06/01 A3004 RMK A01 T00600006  RH  068%=      5-min Rain = 0
KHO1 190401Z 36020G25KT 06/01 A3004 RMK A01 T00600006  RH  068%=      5-min Rain = 0
KHO1 190402Z 35023KT 06/01 A3004 RMK A01 T00600006  RH  068%=      5-min Rain = 0
KHO1 190403Z 35021KT 06/01 A3004 RMK A01 T00600006  RH  068%=      5-min Rain = 0
KHO1 190404Z 35021KT 06/01 A3004 RMK A01 T00600006  RH  068%=      5-min Rain = 0
KHO1 190405Z 34019G25KT 06/01 A3005 RMK A01 T00600006  RH  068%=      5-min Rain = 0
KHO1 190406Z 34020G25KT 06/01 A3005 RMK A01 T00600006  RH  068%=      5-min Rain = 0
KHO1 190407Z 35019KT 06/01 A3005 RMK A01 T00600006  RH  068%=      5-min Rain = 0
KHO1 190408Z 34018G23KT 06/01 A3005 RMK A01 T00590006  RH  068%=      5-min Rain = 0
KHO1 190409Z 34022KT 06/01 A3005 RMK A01 T00590006  RH  069%=      5-min Rain = 0
KHO1 190410Z 34022KT 06/01 A3005 RMK A01 T00590006  RH  069%=      5-min Rain = 0
KHO1 190411Z 34020G25KT 06/01 A3005 RMK A01 T00590006  RH  069%=      5-min Rain = 0
KHO1 190412Z 34019KT 06/01 A3005 RMK A01 T00590006  RH  069%=      5-min Rain = 0
KHO1 190413Z 34017KT 06/01 A3005 RMK A01 T00590006  RH  069%=      5-min Rain = 0
KHO1 190414Z 34018KT 06/01 A3005 RMK A01 T00590006  RH  069%=      5-min Rain = 0
KHO1 190415Z 34018KT 06/01 A3005 RMK A01 T00580006  RH  069%=      5-min Rain = 0
KHO1 190416Z 34020KT 06/01 A3005 RMK A01 T00590006  RH  069%=      5-min Rain = 0
KHO1 190417Z 34021KT 06/01 A3005 RMK A01 T00590006  RH  069%=      5-min Rain = 0
KHO1 190418Z 34020KT 06/01 A3005 RMK A01 T00590006  RH  069%=      5-min Rain = 0
KHO1 190419Z 34018KT 06/01 A3005 RMK A01 T00590006  RH  069%=      5-min Rain = 0
KHO1 190420Z 34020G25KT 06/01 A3006 RMK A01 T00590006  RH  069%=      5-min Rain = 0
KHO1 190421Z 34021KT 06/01 A3005 RMK A01 T00590006  RH  069%=      5-min Rain = 0
KHO1 190422Z 34018KT 06/01 A3005 RMK A01 T00590006  RH  069%=      5-min Rain = 0
KHO1 190423Z 34021KT 06/01 A3005 RMK A01 T00590005  RH  068%=      5-min Rain = 0
KHO1 190424Z 34021G26KT 06/01 A3005 RMK A01 T00600005  RH  068%=      5-min Rain = 0
KHO1 190425Z 34021KT 06/00 A3005 RMK A01 T00600004  RH  067%=      5-min Rain = 0
KHO1 190426Z 34021KT 06/00 A3006 RMK A01 T00610004  RH  067%=      5-min Rain = 0
KHO1 190427Z 35017KT 06/00 A3006 RMK A01 T00610004  RH  067%=      5-min Rain = 0
KHO1 190428Z 34021G26KT 06/00 A3006 RMK A01 T00610004  RH  067%=      5-min Rain = 0
KHO1 190429Z 34022KT 06/00 A3006 RMK A01 T00610004  RH  066%=      5-min Rain = 0
KHO1 190430Z 34020KT 06/00 A3006 RMK A01 T00620004  RH  066%=      5-min Rain = 0
KHO1 190431Z 34020G25KT 06/00 A3006 RMK A01 T00620004  RH  066%=      5-min Rain = 0
KHO1 190432Z 35021KT 06/00 A3006 RMK A01 T00620004  RH  066%=      5-min Rain = 0
KHO1 190433Z 35020G25KT 06/00 A3006 RMK A01 T00620003  RH  066%=      5-min Rain = 0
KHO1 190434Z 35018G25KT 06/00 A3006 RMK A01 T00610003  RH  066%=      5-min Rain = 0
KHO1 190435Z 35020KT 06/00 A3006 RMK A01 T00610003  RH  066%=      5-min Rain = 0
KHO1 190436Z 35021G30KT 06/00 A3006 RMK A01 T00610003  RH  066%=      5-min Rain = 0
KHO1 190437Z 35020KT 06/00 A3006 RMK A01 T00610003  RH  066%=      5-min Rain = 0
KHO1 190438Z 35017G24KT 06/00 A3006 RMK A01 T00610003  RH  067%=      5-min Rain = 0
KHO1 190439Z 35018G23KT 06/00 A3006 RMK A01 T00600003  RH  067%=      5-min Rain = 0
KHO1 190440Z 35016KT 06/00 A3006 RMK A01 T00600003  RH  067%=      5-min Rain = 0
KHO1 190441Z 35017KT 06/00 A3006 RMK A01 T00600004  RH  067%=      5-min Rain = 0
KHO1 190442Z 35019G24KT 06/00 A3006 RMK A01 T00590004  RH  067%=      5-min Rain = 0
KHO1 190443Z 35019KT 06/00 A3006 RMK A01 T00590004  RH  067%=      5-min Rain = 0
KHO1 190444Z 35016G21KT 06/00 A3006 RMK A01 T00590004  RH  068%=      5-min Rain = 0
KHO1 190445Z 35018KT 06/00 A3006 RMK A01 T00580004  RH  068%=      5-min Rain = 0
KHO1 190446Z 35018KT 06/00 A3006 RMK A01 T00580004  RH  068%=      5-min Rain = 0
KHO1 190447Z 35018KT 06/00 A3006 RMK A01 T00580004  RH  068%=      5-min Rain = 0
KHO1 190448Z 35017G25KT 06/00 A3007 RMK A01 T00580004  RH  068%=      5-min Rain = 0
KHO1 190449Z 34021G26KT 06/00 A3006 RMK A01 T00580004  RH  069%=      5-min Rain = 0
KHO1 190450Z 35019KT 06/00 A3007 RMK A01 T00570004  RH  069%=      5-min Rain = 0
KHO1 190451Z 35017KT 06/00 A3007 RMK A01 T00570004  RH  069%=      5-min Rain = 0
KHO1 190452Z 35015KT 06/00 A3007 RMK A01 T00560004  RH  069%=      5-min Rain = 0
KHO1 190453Z 35016G22KT 06/00 A3007 RMK A01 T00560004  RH  069%=      5-min Rain = 0
KHO1 190454Z 35016KT 06/00 A3007 RMK A01 T00560004  RH  069%=      5-min Rain = 0
KHO1 190455Z 35016KT 06/00 A3007 RMK A01 T00550004  RH  070%=      5-min Rain = 0
KHO1 190456Z 35018KT 06/00 A3007 RMK A01 T00550004  RH  070%=      5-min Rain = 0
KHO1 190457Z 35015KT 06/00 A3007 RMK A01 T00550004  RH  070%=      5-min Rain = 0
KHO1 190458Z 35017KT 06/00 A3008 RMK A01 T00550004  RH  070%=      5-min Rain = 0
KHO1 190459Z 35014G19KT 06/00 A3008 RMK A01 T00550004  RH  070%=      5-min Rain = 0
KHO1 190500Z 35017KT 05/00 A3008 RMK A01 T00540004  RH  070%=      5-min Rain = 0
KHO1 190501Z 35015KT 05/01 A3008 RMK A01 T00540005  RH  070%=      5-min Rain = 0
KHO1 190502Z 35014KT 05/01 A3008 RMK A01 T00540005  RH  071%=      5-min Rain = 0
KHO1 190503Z 35015G20KT 05/01 A3008 RMK A01 T00530005  RH  071%=      5-min Rain = 0
KHO1 190504Z 35015G20KT 05/01 A3008 RMK A01 T00530005  RH  071%=      5-min Rain = 0
KHO1 190505Z 35015KT 05/01 A3008 RMK A01 T00530005  RH  071%=      5-min Rain = 0
KHO1 190506Z 35015KT 05/01 A3008 RMK A01 T00530005  RH  071%=      5-min Rain = 0
KHO1 190507Z 34014KT 05/01 A3008 RMK A01 T00520005  RH  072%=      5-min Rain = 0
KHO1 190508Z 34016KT 05/01 A3008 RMK A01 T00520005  RH  072%=      5-min Rain = 0
KHO1 190509Z 34015KT 05/01 A3009 RMK A01 T00520006  RH  072%=      5-min Rain = 0
KHO1 190510Z 34016KT 05/01 A3008 RMK A01 T00520006  RH  072%=      5-min Rain = 0
KHO1 190511Z 34014KT 05/01 A3009 RMK A01 T00520006  RH  072%=      5-min Rain = 0
KHO1 190512Z 34015KT 05/01 A3009 RMK A01 T00520006  RH  072%=      5-min Rain = 0
KHO1 190513Z 34013KT 05/01 A3009 RMK A01 T00520006  RH  072%=      5-min Rain = 0
KHO1 190514Z 34015KT 05/01 A3009 RMK A01 T00510006  RH  072%=      5-min Rain = 0
KHO1 190515Z 34014KT 05/01 A3009 RMK A01 T00510006  RH  072%=      5-min Rain = 0
KHO1 190516Z 34014KT 05/01 A3009 RMK A01 T00510005  RH  072%=      5-min Rain = 0
KHO1 190517Z 34015KT 05/01 A3009 RMK A01 T00500005  RH  073%=      5-min Rain = 0
KHO1 190518Z 34013KT 05/01 A3009 RMK A01 T00500005  RH  073%=      5-min Rain = 0
KHO1 190519Z 34015G20KT 05/01 A3009 RMK A01 T00500006  RH  073%=      5-min Rain = 0
KHO1 190520Z 34014G19KT 05/01 A3009 RMK A01 T00500006  RH  073%=      5-min Rain = 0
KHO1 190521Z 34018KT 05/01 A3009 RMK A01 T00500006  RH  073%=      5-min Rain = 0
KHO1 190522Z 34021KT 05/01 A3009 RMK A01 T00510007  RH  073%=      5-min Rain = 0
KHO1 190523Z 34019G24KT 05/01 A3009 RMK A01 T00530007  RH  072%=      5-min Rain = 0
KHO1 190524Z 34020G26KT 05/01 A301 RMK A01 T00530006  RH  072%=      5-min Rain = 0
KHO1 190525Z 34023G29KT 05/01 A301 RMK A01 T00540005  RH  071%=      5-min Rain = 0
KHO1 190526Z 34025KT 06/00 A301 RMK A01 T00550003  RH  069%=      5-min Rain = 0
KHO1 190527Z 34025KT 06/00 A301 RMK A01 T00560002  RH  068%=      5-min Rain = 0
KHO1 190528Z 34024G29KT 06/00 A301 RMK A01 T00570001  RH  067%=      5-min Rain = 0
KHO1 190529Z 34023G31KT 06/00 A301 RMK A01 T00570000  RH  067%=      5-min Rain = 0
KHO1 190530Z 34026G32KT 06/M00 A3009 RMK A01 T00571001  RH  066%=      5-min Rain = 0
KHO1 190531Z 34027KT 06/M00 A301 RMK A01 T00581002  RH  065%=      5-min Rain = 0
KHO1 190532Z 34025G30KT 06/M00 A301 RMK A01 T00581002  RH  065%=      5-min Rain = 0
KHO1 190533Z 34027G35KT 06/M00 A301 RMK A01 T00581003  RH  065%=      5-min Rain = 0
KHO1 190534Z 34026G32KT 06/M00 A301 RMK A01 T00581003  RH  065%=      5-min Rain = 0
KHO1 190535Z 35024G30KT 06/M00 A301 RMK A01 T00581003  RH  065%=      5-min Rain = 0
KHO1 190536Z 35026KT 06/M00 A301 RMK A01 T00571003  RH  065%=      5-min Rain = 0
KHO1 190537Z 35024G32KT 06/M00 A301 RMK A01 T00571004  RH  065%=      5-min Rain = 0
KHO1 190538Z 35023KT 06/M00 A301 RMK A01 T00571004  RH  065%=      5-min Rain = 0
KHO1 190539Z 35020G25KT 06/M00 A3011 RMK A01 T00561004  RH  065%=      5-min Rain = 0
KHO1 190540Z 35021KT 06/M00 A3011 RMK A01 T00561004  RH  066%=      5-min Rain = 0
KHO1 190541Z 34022G28KT 06/M00 A3011 RMK A01 T00551004  RH  066%=      5-min Rain = 0
KHO1 190542Z 35024G30KT 06/M00 A3011 RMK A01 T00551003  RH  066%=      5-min Rain = 0
KHO1 190543Z 35027G34KT 06/M00 A3011 RMK A01 T00551003  RH  066%=      5-min Rain = 0
KHO1 190544Z 35021G26KT 06/M00 A3011 RMK A01 T00551003  RH  066%=      5-min Rain = 0
KHO1 190545Z 35023KT 05/M00 A3011 RMK A01 T00541002  RH  067%=      5-min Rain = 0
KHO1 190546Z 00022G29KT 05/M00 A3011 RMK A01 T00541003  RH  067%=      5-min Rain = 0
KHO1 190547Z 00025G30KT 05/M00 A3011 RMK A01 T00521004  RH  067%=      5-min Rain = 0
KHO1 190548Z 00027G34KT 05/M01 A3011 RMK A01 T00501005  RH  067%=      5-min Rain = 0
KHO1 190549Z 35024G31KT 05/M01 A3012 RMK A01 T00481006  RH  068%=      5-min Rain = 0
KHO1 190550Z 00023KT 05/M01 A3012 RMK A01 T00471006  RH  069%=      5-min Rain = 0
KHO1 190551Z 36024G30KT 05/M01 A3012 RMK A01 T00461006  RH  069%=      5-min Rain = 0
KHO1 190552Z 36021KT 05/M01 A3012 RMK A01 T00461006  RH  069%=      5-min Rain = 0
KHO1 190553Z 36021KT 05/M01 A3012 RMK A01 T00451006  RH  069%=      5-min Rain = 0
KHO1 190554Z 35019G26KT 05/M01 A3013 RMK A01 T00451006  RH  069%=      5-min Rain = 0
KHO1 190555Z 36021G28KT 04/M01 A3013 RMK A01 T00441007  RH  070%=      5-min Rain = 0
KHO1 190556Z 35027G32KT 04/M01 A3012 RMK A01 T00441007  RH  070%=      5-min Rain = 0
KHO1 190557Z 35025KT 04/M01 A3013 RMK A01 T00431007  RH  070%=      5-min Rain = 0
KHO1 190558Z 35020G26KT 04/M01 A3013 RMK A01 T00431007  RH  070%=      5-min Rain = 0
KHO1 190559Z 35022G29KT 04/M01 A3013 RMK A01 T00431007  RH  070%=      5-min Rain = 0

Page generated in 0.1422 seconds.